İHALESİ DEVAM EDEN HASARLI ARAÇLARIN LİSTESİ

Aşağıda sınırlı sayıda hasarlı araçlar listelenmektedir.
İhaledeki tüm araçları görüp almak istediğiniz araca teklif vermeniz için aşağıda yazılı hesaplarımızdan birine 20.000 TL teminat yatırmanız gerekmektedir.
Teminat yatırdıktan sonra araçlar teklif vermeye başlayabilirsiniz. Araç kaldıktan sonra aracın rakamına göre kapora almaktayız. Ödeme geldiğinde kaporanızı ödeyeceğiniz miktardan düşüyoruz. İsterseniz yatırdığınız teminatınızı da aldığınız araçtan düşebilirsiniz ya da teminatınız durur araç almaya devam edersiniz.
Ödeme yapılacak veya bekleyen araçlar menüsünde aracınız yoksa teminatınızı geri çekebilirsiniz.
Aldığınız aracı ödemezseniz teminatınız yanar.

 #

Model

Aracın Markası Aracın Tipi Bulunduğu Şehir Kapanış Tarihi Asgari Fiyat
1 2015 Motorsiklet HONDA CBF 150 SH Malatya 4.9.2026 10:00 500 TL
2 2020 Motorsiklet FALCON ATTACK 100 Mersin 4.9.2026 10:00 500 TL
3 2016 Hyundai ACCENT BLUE 1.4 D-CVVT MODE PLUS Samsun 4.9.2026 10:00 250 TL
4 2022 Motorsiklet KUBA BLUEBERRY 50 İstanbul 4.9.2026 10:00 250 TL
5 2023 Motorsiklet VOLTA VS1 Ankara 4.9.2026 10:00 250 TL
6 2024 Motorsiklet MONDIAL ELEGANTE 125 Eskişehir 4.9.2026 10:00 250 TL
7 2025 Motorsiklet CSN MOTOR BEAUTY 50 Kütahya 4.9.2026 10:00 250 TL
8 2021 Motorsiklet ARORA CAPIROSSI 50 Uşak 4.9.2026 10:00 250 TL
9 2021 Motorsiklet MONDIAL WİNG 50 İstanbul 4.9.2026 10:00 500 TL
10 2023 Motorsiklet RKS SPONTINI 110 (GST110T-14) Bursa 4.9.2026 10:00 250 TL
11 2024 Motorsiklet ALTAI CARRIER 110 PRO İstanbul 4.9.2026 10:00 250 TL
12 2023 Motorsiklet MONDIAL AİRTİME 50CC Isparta 4.9.2026 10:00 500 TL
13 2021 Motorsiklet REVOLT RM5 X MAXI SCOOTER İzmir 4.9.2026 10:00 500 TL
14 2023 Motorsiklet MONDIAL 50 wing Denizli 4.9.2026 10:00 250 TL
15 1993 Motorsiklet HONDA KINETIC Kilis 4.9.2026 10:00 500 TL
16 2024 Motorsiklet MONDIAL EXON 50 Ankara 4.9.2026 10:00 250 TL
17 2014 Motorsiklet MONDIAL 100 SUPERBOY i İstanbul 4.9.2026 10:00 250 TL
18 2025 Motorsiklet MONDIAL 125 DRİFT L Kocaeli 4.9.2026 10:30 1.500 TL
19 2022 Motorsiklet TVS WEGO 110 FI Adana 4.9.2026 10:30 750 TL
20 1994 Fiat/Tofaş SAHİN 1.6 Antalya 4.9.2026 10:30 1.500 TL
21 2018 Motorsiklet RKS WINNER 200 Sakarya 4.9.2026 10:30 1.000 TL
22 2024 Motorsiklet ABUSH SPEEDY 110i Siirt 4.9.2026 10:30 750 TL
23 1994 Renault SPRING İstanbul 4.9.2026 10:30 1.500 TL
24 2022 Motorsiklet MONDIAL 125 DRİFT L İzmir 4.9.2026 10:30 750 TL
25 1989 Opel KADETT GL 1.3 İzmir 4.9.2026 10:30 1.000 TL
26 2023 Motorsiklet HONDA CB 125 Kocaeli 4.9.2026 10:30 1.000 TL
27 2024 Motorsiklet ARORA AR 06 Samsun 4.9.2026 10:30 1.000 TL
28 2025 Motorsiklet TVS JUPITER 125 Adana 4.9.2026 10:30 1.000 TL
29 2018 Motorsiklet LIFAN DISCOVERY 150 (LF150-9J) Isparta 4.9.2026 10:30 1.500 TL
30 2024 Motorsiklet MUSATTI GLAMARO MAX 125 İstanbul 4.9.2026 10:30 750 TL
31 2023 Motorsiklet RKS SPONTINI 110 (GST110T-14) İstanbul 4.9.2026 10:30 1.000 TL
32 2024 Motorsiklet FALCON SALVADOR 188 Çorum 4.9.2026 10:30 1.000 TL
33 2024 Motorsiklet MONDIAL 125 DRIFT L CBS Kayseri 4.9.2026 10:30 750 TL
34 2024 Motorsiklet APEC PS3 50 Ankara 4.9.2026 10:30 750 TL
35 2018 Motorsiklet HONDA ACTIVA S (NSC125) İstanbul 4.9.2026 11:00 1.500 TL
36 2023 Motorsiklet MONDIAL WİNG 50 Aydın 4.9.2026 11:00 1.500 TL
37 2022 Motorsiklet MOTOLUX CEO 110 Gaziantep 4.9.2026 11:00 1.500 TL
38 1991 Toyota CORONA GL Antalya 4.9.2026 11:00 2.000 TL
39 2025 Hyundai BAYON 1.0T ELITE DCT İzmir 4.9.2026 11:00 2.500 TL
40 1988 Renault 12 TSW Karabük 4.9.2026 11:00 2.000 TL
41 1992 Renault 12 TOROS SEDAN Kars 4.9.2026 11:00 3.000 TL
42 1990 Renault TOROS Tekirdağ 4.9.2026 11:00 2.000 TL
43 2020 Motorsiklet HONDA ACTIVA S (NSC125) İstanbul 4.9.2026 11:00 1.500 TL
44 2024 Motorsiklet BENELLI 125S Denizli 4.9.2026 11:00 3.000 TL
45 2024 Motorsiklet YUKI TARO GP2 Konya 4.9.2026 11:00 3.000 TL
46 2023 Motorsiklet KUBA EGE 50 Adana 4.9.2026 11:00 2.500 TL
47 2020 Fiat/Tofaş EGEA SEDAN URBAN PLUS 1.4 FIRE 95 E6D Muş 4.9.2026 11:00 2.500 TL
48 2023 Motorsiklet RKS SPONTINI 125 İstanbul 4.9.2026 11:00 2.500 TL
49 2023 Motorsiklet MONDİAL STRADA 125 Muğla 4.9.2026 11:00 2.000 TL
50 1996 Fiat/Tofaş TİPO 1.6 SLX Manisa 4.9.2026 11:00 2.000 TL
51 2025 Motorsiklet MONDIAL SFC 50 Kahramanmaraş 4.9.2026 11:00 3.000 TL
52 2021 Motorsiklet MOTOLUX CEO 110 İstanbul 4.9.2026 11:30 9.000 TL
53 2025 Motorsiklet KUBA SPACEMAX 50 İstanbul 4.9.2026 11:30 3.500 TL
54 2025 Motorsiklet MONDIAL 125 DRİFT L Samsun 4.9.2026 11:30 7.000 TL
55 2023 Motorsiklet HONDA ACTİVA 125 Bursa 4.9.2026 11:30 10.000 TL
56 2025 Motorsiklet RKS VRS125 Ankara 4.9.2026 11:30 4.500 TL
57 2024 Motorsiklet MONDIAL 125 DRİFT L Ankara 4.9.2026 11:30 4.000 TL
58 1996 Fiat/Tofaş SAHİN Konya 4.9.2026 11:30 9.000 TL
59 2024 Motorsiklet RKS RZ250S İstanbul 4.9.2026 11:30 9.000 TL
60 2025 Motorsiklet KUBA NEWCITY 50 İstanbul 4.9.2026 11:30 3.500 TL
61 2024 Motorsiklet KANUNI REHA 250 İstanbul 4.9.2026 11:30 5.000 TL
62 1994 Suzuki SWIFT 1.3 GL Samsun 4.9.2026 11:30 9.000 TL
63 2018 Motorsiklet HONDA PCX 125 Bursa 4.9.2026 11:30 7.500 TL
64 2025 Motorsiklet MONDIAL 125 DRIFT L CBS İzmir 4.9.2026 11:30 7.000 TL
65 2024 Motorsiklet CFMOTO 250 SR Diyarbakır 4.9.2026 11:30 4.000 TL
66 1993 Fiat/Tofaş KARTAL 1.6 İzmir 4.9.2026 11:30 4.000 TL
67 1993 Renault 9 GTE BROADWAY Sivas 4.9.2026 11:30 3.500 TL
68 2023 Motorsiklet RKS NEWLIGHT 125 PRO İstanbul 4.9.2026 12:00 19.500 TL
69 2022 Motorsiklet YUKI T9 STORM 125 MAXI SCOOTER Bursa 4.9.2026 12:00 28.000 TL
70 2024 Motorsiklet MONDIAL 125 DRİFT L Kayseri 4.9.2026 12:00 28.500 TL
71 2022 Motorsiklet KUBA EGE 50 İstanbul 4.9.2026 12:00 16.000 TL
72 2023 Motorsiklet RKS SPONTINI 110 İstanbul 4.9.2026 12:00 12.000 TL
73 2023 Motorsiklet KUBA VN50 PRO İzmir 4.9.2026 12:00 12.000 TL
74 2025 Motorsiklet REVOLT RSX5 150 Düzce 4.9.2026 12:00 12.500 TL
75 1998 Fiat/Tofaş DOGAN SLX Erzincan 4.9.2026 12:00 27.500 TL
76 2026 Motorsiklet ARORA MAX PRO Aydın 4.9.2026 12:00 15.000 TL
77 2026 Motorsiklet YUKI VOGE R125 İzmir 4.9.2026 12:00 16.500 TL
78 1993 Fiat/Tofaş DOGAN SL İstanbul 4.9.2026 12:00 11.500 TL
79 2024 Motorsiklet VOGE SR3 Adana 4.9.2026 12:00 16.500 TL
80 2004 Skoda OCTAVIA 1.6 AMBIENTE İstanbul 4.9.2026 12:00 15.000 TL
81 2024 Motorsiklet HONDA PCX 125 İstanbul 4.9.2026 12:00 12.000 TL
82 2017 Honda JAZZ 1.3 ELEGANCE CVT Çorum 4.9.2026 12:00 15.000 TL
83 1999 Renault BROADWAY 1.4 RN Elazığ 4.9.2026 12:00 16.000 TL
84 2008 Citroen BERLINGO X 1.9D COMBI İstanbul 4.9.2026 12:00 21.500 TL
85 1993 Fiat/Tofaş DOGAN SLX Mersin 4.9.2026 14:00 62.000 TL
86 2000 Renault 19 EUROPA 1.9 DIZEL Muğla 4.9.2026 14:00 95.000 TL
87 2024 Motorsiklet BAJAJ PULSAR NS200 Muğla 4.9.2026 14:00 62.500 TL
88 1996 Renault 19 EUROPA 1.6 RT Manisa 4.9.2026 14:00 78.500 TL
89 2001 Peugeot PARTNER 1.9D İstanbul 4.9.2026 14:00 61.500 TL
90 2005 Fiat/Tofaş PALIO 1.2 Konya 4.9.2026 14:00 64.000 TL
91 2000 Ford FOCUS 1.6i AMBIENTE SEDAN Ankara 4.9.2026 14:00 83.000 TL
92 2020 Motorsiklet HONDA PCX 125 İstanbul 4.9.2026 14:00 34.500 TL
93 2024 Motorsiklet CFMOTO 250 SR Bursa 4.9.2026 14:00 34.000 TL
94 2025 Motorsiklet CFMOTO 250 SR İstanbul 4.9.2026 14:00 46.500 TL
95 1996 Renault 19 EUROPA 1.6i RNE Bartın 4.9.2026 14:00 36.000 TL
96 2011 Renault FLUENCE BUSINESS 1.5 DCI (85) Gaziantep 4.9.2026 14:00 49.500 TL
97 2004 Volvo S40 1.6 Kastamonu 4.9.2026 14:00 86.000 TL
98 2012 Citroen NEMO COMBI 1.4 HDI X Gaziantep 4.9.2026 14:00 65.000 TL
99 2006 Fiat/Tofaş PUNTO 1.3 MULTIJET 16V DYNAMIC 5 KAPI Şanlıurfa 4.9.2026 14:00 53.500 TL
100 2008 Magirus SULTAN 145 S Muğla 4.9.2026 14:00 96.500 TL
101 2013 Renault KANGOO MULTIX TOUCH 1.5 DCI 90 E5 Ordu 4.9.2026 14:00 48.500 TL
102 2024 Motorsiklet YAMAHA MT 125 ABS İstanbul 4.9.2026 14:30 155.000 TL
103 2005 Fiat/Tofaş PALIO 1.2 SL Samsun 4.9.2026 14:30 143.000 TL
104 2003 Volkswagen GOLF 1.6 16V PACIFIC Ankara 4.9.2026 14:30 215.000 TL
105 1999 Volkswagen PASSAT 1.8 BASIC Afyonkarahisar 4.9.2026 14:30 158.000 TL
106 2008 Renault MEGANE II WAGON 1.5 DCI AUTHENTIQUE İstanbul 4.9.2026 14:30 176.000 TL
107 1998 Opel ASTRA 1.4i 16V GL SEDAN Ankara 4.9.2026 14:30 112.000 TL
108 2006 Hyundai ACCENT ERA 1.5 CRDi VGT TEAM (Y) İstanbul 4.9.2026 14:30 124.500 TL
109 2006 Fiat/Tofaş PALIO 1.3 MULTIJET ACTIVE Ankara 4.9.2026 14:30 108.000 TL
110 2012 Ford T.CONNECT KOMBI K210S 1.8 TDCI 90 E5 İstanbul 4.9.2026 14:30 210.500 TL
111 2004 Volkswagen MULTIVAN 2.5 TDI COMFORTLINE (130) Ankara 4.9.2026 14:30 210.000 TL
112 2004 Volkswagen TRANSPORTER CITYVAN 1.9 TDI Ankara 4.9.2026 14:30 192.000 TL
113 2003 Peugeot 206 CC 1.6 İstanbul 4.9.2026 14:30 156.000 TL
114 2014 Peugeot 208 ACCESS 1.0 VTI 68 Ankara 4.9.2026 14:30 165.500 TL
115 2016 Renault SYMBOL JOY 1.5 DCI 90 Diyarbakır 4.9.2026 14:30 126.000 TL
116 2016 Kia BONGO K2500 CIFT TEKER KASALI KAMYONET Ankara 4.9.2026 14:30 164.000 TL
117 2004 Hyundai SANTA FE 2.0 CRDi VGT H-MATIC İstanbul 4.9.2026 14:30 106.000 TL
118 2011 Toyota COROLLA SEDAN 1.33 COMFORT Ankara 4.9.2026 14:30 150.000 TL
119 2013 Renault CLIO HB ICON 1.5 DCI EDC 90 Ankara 4.9.2026 15:00 269.000 TL
120 2009 Opel CORSA 1.3 CDTi 5 KAPI ESSENTIA Ankara 4.9.2026 15:00 297.500 TL
121 2022 Kia STONIC COOL 1.4 100 OV İstanbul 4.9.2026 15:00 315.500 TL
122 2012 Chevrolet CRUZE HB 2.0 DIZEL OV İstanbul 4.9.2026 15:00 376.500 TL
123 2006 Ford FIESTA 1.6i GHIA Ankara 4.9.2026 15:00 334.500 TL
124 2019 Fiat/Tofaş FIORINO COMBI POP 1.4 EKO 77 Ankara 4.9.2026 15:00 333.500 TL
125 2015 Peugeot PARTNER TEEPE ZENITH 1.6 HDI Kocaeli 4.9.2026 15:00 292.500 TL
126 2008 Honda CIVIC SEDAN 1.6 ELEGANCE (Y) Konya 4.9.2026 15:00 332.000 TL
127 2016 Dacia DUSTER AMBIANCE 1.5 DCI 90 4x2 E0PB H AL Ankara 4.9.2026 15:00 303.500 TL
128 2011 Ford FIESTA TITANIUM 5K 1.4 TDCi Ankara 4.9.2026 15:00 224.000 TL
129 2006 Volkswagen PASSAT 2.0 TDI COMFORTLINE Gaziantep 4.9.2026 15:00 233.000 TL
130 2025 Dfsk PORTER 1 1.6 İstanbul 4.9.2026 15:00 279.000 TL
131 2012 Renault CLIO GRAND TOUR EXTREME EDITION 1.5 DCI 75 E5 İstanbul 4.9.2026 15:00 277.500 TL
132 2006 Renault CEKICI PREMIUM 420.19 4x2 Manisa 4.9.2026 15:00 228.500 TL
133 2007 Bmw 318i SEDAN STANDART İstanbul 4.9.2026 15:00 236.500 TL
134 2008 Ford KAMYON CARGO 3235 S (8x2) Aksaray 4.9.2026 15:00 281.000 TL
135 2014 Motorsiklet DUCATI 899 PANIGALE ABS İstanbul 4.9.2026 15:00 400.000 TL
136 2012 Opel INSIGNIA HB COSMO 2.8 (260) 4x4 OV İstanbul 4.9.2026 15:00 285.000 TL
137 2010 Volvo S40 1.6 Muğla 4.9.2026 15:15 1.000 TL
138 2026 Peugeot 2008 ALLURE 1.2 HYBRID İstanbul 4.9.2026 15:15 777.000 TL
139 2012 Renault FLUENCE 1.5 DCI İstanbul 4.9.2026 15:15 1.000 TL
140 2018 Peugeot 2008 1.6 BLUEHDI Uşak 4.9.2026 15:15 333.000 TL
141 2022 Renault CLIO JOY 1.0 TCE İstanbul 4.9.2026 15:15 1.000 TL
142 2020 Fiat/Tofaş EGEA SEDAN 1.3 M.JET Samsun 4.9.2026 15:15 1.000 TL
143 2020 Skoda SCALA PREMIUM 1.6 TDI Kocaeli 4.9.2026 15:15 415.000 TL
144 2026 Cupra FORMENTOR 1.5 eTSI Samsun 4.9.2026 15:15 1.473.000 TL
145 2022 Mercedes EQE 350 AMG İstanbul 4.9.2026 15:15 745.000 TL
146 2017 Scania R450 A4X2NA CR20H KABIN Şehir Seç 4.9.2026 15:30 1.000 TL
147 2009 Honda CIVIC 1,6İ VTEC ELEGANCE Kayseri 4.9.2026 15:30 1.000 TL
148 2008 Volkswagen PASSAT 2.0 TDI COMFORTLINE TIP. DSG (140) Isparta 4.9.2026 15:30 1.000 TL
149 2012 Ford TRANSIT 330S TEK KABIN K.NET 125 E4 GP Manisa 4.9.2026 15:30 1.000 TL
150 2024 Motorsiklet VESPA NEW GTS SUPERSPORT 300 HPE İstanbul 4.9.2026 15:30 1.000 TL
151 2006 Ford T.CONNECT KOMBI 1.8 TDCi DELUX Tekirdağ 4.9.2026 15:30 1.000 TL
152 2004 Honda CIVIC 1.6 LS VTEC 4 KAPI (Y) İzmir 4.9.2026 15:30 1.000 TL
153 2022 Ford CEKICI F-MAX COMFORT PLUS PACK Denizli 4.9.2026 15:30 1.000 TL
154 2016 Nissan QASHQAI 1.6 DCI Gaziantep 4.9.2026 15:30 1.000 TL
155 2024 Ford CEKICI 1845T EKSTRA YUKSEK TAVAN İzmir 4.9.2026 15:30 1.000 TL
156 2025 Seat ATECA 1.5 ECOTSI ACT 150 DSG S&S XPERIENCE Bursa 4.9.2026 15:30 1.000 TL
157 2013 Renault MEGANE HB TOUCH 1.5 DCI EDC 110 Uşak 4.9.2026 15:30 1.000 TL
158 2015 Audi A3 1.6 TDI Adana 4.9.2026 15:30 1.000 TL
159 2018 Renault CLIO TOUCH 1.5 DCI EDC 90 İstanbul 4.9.2026 15:30 1.000 TL
160 1998 Hyundai H100 2.5 D DLX PANELVAN Şehir Seç 4.9.2026 15:30 1.000 TL
161 2024 Motorsiklet STRADA 125 İstanbul 4.9.2026 15:30 1.000 TL
162 2004 Fiat/Tofaş MAREA 1.6 LIBERTY İstanbul 4.9.2026 15:30 1.000 TL
163 2001 Opel CORSA 1.4i 16V COMFORT Kayseri 4.9.2026 15:30 1.000 TL
164 2006 Volkswagen POLO 1.4 TRENDLINE Bursa 4.9.2026 15:30 1.000 TL
165 2025 Fiat/Tofaş EGEA SEDAN 1.6 M.JET Şehir Seç 4.9.2026 15:30 1.000 TL
166 2020 Kia SPORTAGE 1.6 Antalya 4.9.2026 15:30 1.000 TL
167 2013 Volkswagen JETTA 1.6 TDI Kırıkkale 4.9.2026 15:30 1.000 TL
168 2021 Toyota HILUX 2.4 D-4D 150 Adana 4.9.2026 15:30 1.000 TL
169 2025 Motorsiklet PULSAR NS 125 İstanbul 4.9.2026 15:30 1.000 TL
170 2024 Motorsiklet JUPITER 125 Samsun 4.9.2026 15:30 1.000 TL
171 2013 Mercedes CLA 200 1.6 AMG Kayseri 4.9.2026 15:30 1.000 TL
172 2024 Volkswagen POLO 1.0 TSI 95 DSG LIFE Sakarya 4.9.2026 15:30 1.000 TL
173 2014 Hyundai i30 1.6 CRDI ELITE OV Ordu 4.9.2026 15:30 1.000 TL
174 2021 Volkswagen PASSAT 1.5 TSI ACT 150 DSG ELEGANCE Adana 4.9.2026 15:30 1.000 TL
175 2025 Renault MEGANE SEDAN ICON 1.3 TCE EDC 140 FAZ2 Ankara 4.9.2026 15:30 1.000 TL
176 2023 Honda PCX 125 Muğla 4.9.2026 15:30 1.000 TL
177 2020 Volkswagen PASSAT 1.5 TSI ACT 150 DSG IMPRESSION Konya 4.9.2026 15:30 1.000 TL
178 2025 Volkswagen T-CROSS 1.0 TSI 116 LIFE DSG Samsun 4.9.2026 15:30 1.000 TL
179 2024 Motorsiklet 250 RR İstanbul 4.9.2026 15:30 1.000 TL
180 2024 Renault CLIO EVOLUTION 1.0 TCE X-TRONIC 90 İstanbul 4.9.2026 15:30 1.000 TL
181 2019 Fiat/Tofaş EGEA 1.4 FIRE 95 Niğde 4.9.2026 15:30 1.000 TL
182 2014 Opel ASTRA 1,4 Mersin 4.9.2026 15:30 1.000 TL
183 2000 Opel ASTRA 1.7 GL Tokat 4.9.2026 15:30 1.000 TL
184 2014 Dorse/Römork SİLOBAS Trabzon 4.9.2026 15:30 1.000 TL
185 2023 Dorse/Römork TIPPER Antalya 4.9.2026 15:30 1.000 TL
186 2022 Dorse/Römork DAMPERLİ YARI ROMORK Konya 4.9.2026 15:30 1.000 TL
187 2013 Volkswagen POLO 1.6 TDI COMFORTLINE T.TRONIC DSG 90 Konya 4.9.2026 15:30 1.000 TL
188 2015 Volkswagen POLO 1.4 TDI 90 COMFORTLINE TIPTRONIC İstanbul 4.9.2026 15:30 1.000 TL
189 2016 Mercedes GLA 180 CDI 1.5 URBAN İstanbul 4.9.2026 15:30 1.000 TL
190 2001 Toyota COROLLA 1.6 TERRA Adıyaman 4.9.2026 15:30 1.000 TL
191 2025 Honda NSS250A FORZA 250 Ankara 4.9.2026 15:30 1.000 TL
192 2024 Nissan JUKE 1.0 DIG-T 115 PLATINUM Isparta 4.9.2026 15:30 1.000 TL
193 2024 Citroen BERLINGO SHINE 1.5 BLUEHDI 130 EAT8 FL Samsun 4.9.2026 15:30 1.000 TL
194 2024 Hyundai i20 FL 1.0 T-GDI 100 JUMP DCT Bursa 4.9.2026 15:30 1.000 TL
195 2025 Volvo EX30 EXTENDED RANGE ULTRA 150KW Adana 4.9.2026 15:30 1.000 TL
196 2023 Fiat/Tofaş FIORINO CARGO 1.3 M.JET 95 E6D FINAL İstanbul 4.9.2026 15:30 1.000 TL
197 2024 Renault TALIANT JOY 1.0 TURBO X-TRONIC 90 Çorum 4.9.2026 15:30 1.000 TL
198 2012 Fiat/Tofaş LINEA EMOTION PLUS 1.6 MULTIJET (105) Isparta 4.9.2026 15:30 1.000 TL
199 2025 Honda SH125i Amasya 4.9.2026 15:30 1.000 TL
200 2025 Renault AUSTRAL ESPRIT ALPINE M.HYBRID 160 AT FL Kırklareli 4.9.2026 15:30 1.000 TL
201 2003 Renault MEGANE II HB DYNAMIQUE 1.6 16V OV Ankara 4.9.2026 15:30 1.000 TL
202 2011 Audi A4 2.0 TDI (143) MULTITRONIC Ankara 4.9.2026 15:30 1.000 TL
203 2015 Audi A4 2.0 TDI 150 MULTITRONIC PI Kocaeli 4.9.2026 15:30 1.000 TL
204 2024 Motorsiklet VERANO 50 Amasya 4.9.2026 15:30 1.000 TL
205 2026 Motorsiklet DS625X İstanbul 4.9.2026 15:30 1.000 TL
206 2005 Opel CORSA 1.4i 16V TWINP.5 KAPI ENJOY Antalya 4.9.2026 15:30 1.000 TL
207 2012 Man CEKICI TGS 18.400 4x2 BLS E5 LX Ankara 4.9.2026 15:30 1.000 TL
208 2012 Nissan QASHQAI 1.5 DCI TEKNA 4x2 Diyarbakır 4.9.2026 15:30 1.000 TL
209 2014 Citroen C4 1.6 HDI 92 EASY Kocaeli 4.9.2026 15:30 1.000 TL
210 1999 Opel CORSA SWING 1.2i 16V Erzincan 4.9.2026 15:30 1.000 TL
211 2021 Skoda SCALA 1.0 TSI 110 DSG PREMIUM Denizli 4.9.2026 15:30 1.000 TL
212 2012 Renault MEGANE HB EXTREME 1.5 DCI 90 E5 Antalya 4.9.2026 15:30 1.000 TL
213 2015 Nissan QASHQAI 1.5 DCI PLATINUM PREMIUM PACK Bursa 4.9.2026 15:30 1.000 TL
214 2023 Renault MEGANE SEDAN ICON 1.3 TCE EDC 140 FAZ2 Kocaeli 4.9.2026 15:30 1.000 TL
215 2015 Mercedes E 180 1.6 EDITIONE İstanbul 4.9.2026 15:30 1.000 TL
216 2023 Audi A3 SEDAN 35 TFSI 150 S LINE STRONIC Antalya 4.9.2026 15:30 1.000 TL
217 2022 Bmw 740d XDRIVE 3.0 (300) M EXCELLENCE İstanbul 4.9.2026 15:30 1.000 TL
218 2011 Renault MEGANE III HB 1.5 DCI Bursa 4.9.2026 15:30 1.000 TL
219 2020 Honda CBF 250 NA Muğla 4.9.2026 15:30 1.000 TL
220 1998 Renault EUROPA 1.6i Şehir Seç 4.9.2026 15:30 1.000 TL
221 2001 Renault CLIO 1,4 RNA Ordu 4.9.2026 15:30 1.000 TL
222 2012 Opel ASTRA SEDAN 1.3 CDTI İzmir 4.9.2026 15:30 1.000 TL
223 2011 Traktör PUMA 225 CAB Ankara 4.9.2026 15:30 1.000 TL
224 2005 Volkswagen BORA 1.6 PASIFIC Şehir Seç 4.9.2026 15:30 1.000 TL
225 2026 Dorse/Römork SARILMAZ SRL 3 YARI RÖMORK Aksaray 4.9.2026 15:30 1.000 TL
226 2025 Byd SEAL İzmir 4.9.2026 15:30 1.000 TL
227 2007 Mitsubishi PRESTİJ 27+1 Tekirdağ 4.9.2026 15:30 1.000 TL
228 2012 Citroen NEMO COMBI X 1.4 HDI Şehir Seç 4.9.2026 15:30 1.000 TL
229 2002 Ford TRANSIT 280 Kahramanmaraş 4.9.2026 15:30 1.000 TL
230 2023 Motorsiklet MT 125 Kırıkkale 4.9.2026 15:30 1.000 TL
231 2009 Citroen C4 SX 1.6i Samsun 4.9.2026 15:30 1.000 TL
232 2018 Nissan X-TRAIL 1.6 DCI Şanlıurfa 4.9.2026 15:30 1.000 TL
233 2006 Fiat/Tofaş ALBEA 1.6 İstanbul 4.9.2026 15:30 1.000 TL
234 2023 Motorsiklet PULSAR NS 200 Düzce 4.9.2026 15:30 1.000 TL
235 2015 Renault CAPTUR 1.5 DCI Kocaeli 4.9.2026 15:30 1.000 TL
236 2016 Opel INSIGNIA NB 1.6D 136 Konya 4.9.2026 15:30 1.000 TL
237 2025 Motorsiklet R125 Kocaeli 4.9.2026 15:30 1.000 TL
238 2022 Fiat/Tofaş EGEA CROSS 1.6 M.JET İzmir 4.9.2026 15:30 1.000 TL
239 2024 Motorsiklet 250 NK Ankara 4.9.2026 15:30 1.000 TL
240 2023 Toyota COROLLA 1.5 Adana 4.9.2026 15:30 1.000 TL
241 2024 Motorsiklet FR177 Konya 4.9.2026 15:30 1.000 TL
242 2024 Motorsiklet MTT 890 D Konya 4.9.2026 15:30 1.000 TL
243 2006 Ford TRANSIT 350 M KAMYONET Antalya 4.9.2026 15:30 1.000 TL
244 2018 Ford TOURNEO COUIRER 1,5 TDCİ Balıkesir 4.9.2026 15:30 1.000 TL
245 2023 Motorsiklet 125 DRİFT L Ankara 4.9.2026 15:30 1.000 TL
246 2011 Karsan J10 14+1 MINIBUS İzmir 4.9.2026 15:30 1.000 TL
247 2003 Peugeot 307 1.6 XT Denizli 4.9.2026 15:30 1.000 TL
248 2015 Motorsiklet YAMAHA YZF R25 Muğla 4.9.2026 15:30 1.000 TL
249 2013 Skoda SUPERB 1.6 TDI Konya 4.9.2026 15:30 1.000 TL
250 2019 Fiat/Tofaş EGEA SEDAN 1.3 M.JET Samsun 4.9.2026 15:30 1.000 TL
251 1999 Opel CORSA 1.2 Aydın 4.9.2026 15:30 1.000 TL
252 2008 Dacia SANDERO 1.4 Balıkesir 4.9.2026 15:30 1.000 TL
253 2020 Toyota COROLLA 1.6 Erzurum 4.9.2026 15:30 1.000 TL
254 2025 Citroen C4 X 1.2 PURETCH İstanbul 4.9.2026 15:30 1.000 TL
255 2024 Renault AUSTRAL 1.3 HYBRİD Afyonkarahisar 4.9.2026 15:30 1.000 TL
256 2024 Fiat/Tofaş EGEA SEDAN 1.3 M.JET EASY Sakarya 4.9.2026 15:30 1.000 TL
257 1996 Renault R19 EUROPA 1,6 RT Adıyaman 4.9.2026 15:30 1.000 TL
258 2020 Renault MEGANE SEDAN JOY 1.3 TCE Kocaeli 4.9.2026 15:30 1.000 TL
259 2011 Geely EMGRAND EC7 1.5 Kütahya 4.9.2026 15:30 1.000 TL
260 2019 Mercedes A 180 d Gaziantep 4.9.2026 15:30 1.000 TL
261 2020 Ford TRANSIT KAMYONET CIFT KABİN Ankara 4.9.2026 15:30 1.000 TL
262 1993 Fiat/Tofaş DOĞAN SL Şehir Seç 4.9.2026 15:30 1.000 TL
263 2010 Renault KANGOO MULTIX 1.5 DCI Şehir Seç 4.9.2026 15:30 1.000 TL
264 2001 Fiat/Tofaş PALIO 1.2 Sivas 4.9.2026 15:30 1.000 TL
265 2009 Renault SYMBOL AUTHENTIQUE 1.5 DCI Denizli 4.9.2026 15:30 1.000 TL
266 2022 Volkswagen POLO 1.0 Şehir Seç 4.9.2026 15:30 1.000 TL
267 2012 Ford FOCUS 1.6 TDCI TREND İstanbul 4.9.2026 15:30 1.000 TL
268 2026 Togg T10X V2 RWD UZUN MENZIL 160KW Antalya 4.9.2026 15:30 1.000 TL
269 2017 Dacia DUSTER 4x2 1.5 DCI 110 Malatya 4.9.2026 15:30 1.000 TL
270 2015 Citroen C4 CACTUS 1.6 E-HDI 92 İzmir 4.9.2026 15:30 1.000 TL
271 2007 Renault KANGOO MULTİX 1.5 DCI Mersin 4.9.2026 15:30 1.000 TL
272 2024 Ford TRANSİT 350ED KNET 2.0 165 Samsun 4.9.2026 15:30 1.000 TL
273 2025 Audi A3 35 TFSI İstanbul 4.9.2026 15:30 1.000 TL
274 2021 Honda CIVIC SEDAN 1.5 İ VTEC İstanbul 4.9.2026 15:30 1.000 TL
275 2025 Bmw X1 XDRIVE25E 1.5 Çanakkale 4.9.2026 15:30 1.000 TL
276 2020 Volkswagen PASSAT 2.0 TDI Ankara 4.9.2026 15:30 1.000 TL
277 2008 Honda JAZZ 1.4 Rize 4.9.2026 15:30 1.000 TL
278 1997 Toyota COROLLA 1.6 Çorum 4.9.2026 15:30 1.000 TL
279 2021 Motorsiklet TK03 Mardin 4.9.2026 15:30 1.000 TL
280 2004 Scania CEKICI R 164 4x2 NA Antalya 4.9.2026 15:30 1.000 TL
281 2017 Volkswagen POLO 1.2 TSI 90 Denizli 4.9.2026 15:30 1.000 TL
282 2025 Dorse/Römork YARI RÖMORK İzmir 4.9.2026 15:30 1.000 TL
283 2014 Ford TRANSIT COURIER VAN 1.5 TDCI Sakarya 4.9.2026 15:30 1.000 TL
284 2013 Renault SYMBOL 1,5 DCİ TOUCH Şanlıurfa 4.9.2026 15:30 1.000 TL
285 2021 Toyota COROLLA 1.5 Ankara 4.9.2026 15:30 1.000 TL
286 2014 Volkswagen CADDY 1.6 TDİ Adıyaman 4.9.2026 15:30 1.000 TL
287 2025 Honda PCX 125 İstanbul 4.9.2026 15:30 1.000 TL
288 2025 Fiat/Tofaş EGEA SEDAN 1.6 M.JET İstanbul 4.9.2026 15:30 1.000 TL
289 2023 Fiat/Tofaş EGEA CROSS 1.6 M.JET Zonguldak 4.9.2026 15:30 1.000 TL
290 2023 Fiat/Tofaş EGEA CROSS 1.6 M.JET Ankara 4.9.2026 15:30 1.000 TL
291 2026 Renault CLİO 1.0 TCE İstanbul 4.9.2026 15:30 1.000 TL
292 2013 Toyota AURIS 1.6 Adana 4.9.2026 15:30 1.000 TL
293 2015 Skoda RAPID 1.6 TDI Eskişehir 4.9.2026 15:30 1.000 TL
294 1998 Volkswagen POLO CLASSIC 1.6 Kütahya 4.9.2026 15:30 1.000 TL
295 2025 Motorsiklet SHARK 125 Şehir Seç 4.9.2026 15:30 1.000 TL
296 2000 Toyota COROLLA 1.6 TERRA Ankara 4.9.2026 15:30 1.000 TL
297 2004 Fiat/Tofaş ALBEA 1.3 MULTIJET Bartın 4.9.2026 15:30 1.000 TL
298 2022 Motorsiklet RC 390 Şehir Seç 4.9.2026 15:30 1.000 TL
299 2023 Motorsiklet 250 CL-X İstanbul 4.9.2026 15:30 1.000 TL
300 2017 Audi A3 SPORTBACK 1.6 TDI Diyarbakır 4.9.2026 15:30 1.000 TL
301 2022 Volkswagen PASSAT 1.5 TSI Van 4.9.2026 15:30 1.000 TL
302 2012 Traktör MF 6499 Şanlıurfa 4.9.2026 15:30 1.000 TL
303 2014 Toyota COROLLA 1.4 D-4D ADVANCE Samsun 4.9.2026 15:30 1.000 TL
304 2023 Citroen BERLINGO 1,5 BLUEHDI Samsun 4.9.2026 15:30 1.000 TL
305 2026 Kgmobılıty TORRES EVX Antalya 4.9.2026 15:30 1.000 TL
306 2018 Motorsiklet V15 İstanbul 4.9.2026 15:30 1.000 TL
307 2012 Volkswagen CADDY 1.6 TDI Sakarya 4.9.2026 15:30 1.000 TL
308 2020 Renault MEGANE SEDAN 1.3 TCE 140 Ankara 4.9.2026 15:30 1.000 TL
309 2011 Fiat/Tofaş PANDA 1.2 ACTIVE (69) İzmir 4.9.2026 15:30 1.000 TL
310 2024 Motorsiklet 250 SR Eskişehir 4.9.2026 15:30 1.000 TL
311 2024 Motorsiklet PULSAR RS 200 Antalya 4.9.2026 15:30 1.000 TL
312 2011 Motorsiklet KB150-9 Mersin 4.9.2026 15:30 1.000 TL
313 2004 Opel CORSA 1.3 CDTi Tekirdağ 4.9.2026 15:30 1.000 TL
314 2025 Motorsiklet GRACE 50 İstanbul 4.9.2026 15:30 1.000 TL
315 2020 Renault CLIO 1.0 TCE Kocaeli 4.9.2026 15:30 1.000 TL
316 2023 Opel CORSA 1.2 İzmir 4.9.2026 15:30 1.000 TL
317 2013 Skoda SUPERB 1.6 TDI Gaziantep 4.9.2026 15:30 1.000 TL
318 2023 Ford FOCUS 1.5 ECOBLUE İstanbul 4.9.2026 15:30 1.000 TL
319 2008 Toyota COROLLA SEDAN 1.6 ELEGANT Manisa 4.9.2026 15:30 1.000 TL
320 2024 Fiat/Tofaş EGEA SEDAN EASY 1.4 FIRE Kütahya 4.9.2026 15:30 1.000 TL
321 2022 Motorsiklet MT 125 Aydın 4.9.2026 15:30 1.000 TL
322 2026 Peugeot 2008 1.2 HYBRID Kayseri 4.9.2026 15:30 1.000 TL
323 1998 Toyota COROLLA 1.3 XL SW İzmir 4.9.2026 15:30 1.000 TL
324 2015 Fiat/Tofaş DOBLO CARGO MAXI 1.6 M.JET İstanbul 4.9.2026 15:30 1.000 TL
325 2015 Mercedes VITO TOURER Antalya 4.9.2026 15:30 1.000 TL
326 2005 Opel ASTRA HB 1.3 CDTi ESSENTIA İzmir 4.9.2026 15:30 1.000 TL
327 2021 Honda DIO Kocaeli 4.9.2026 15:30 1.000 TL
328 2015 Volkswagen PASSAT 1.6 TDI BMT Kayseri 4.9.2026 15:30 1.000 TL
329 2003 Alfa Romeo 147 1.6 DISTINCTIVE Bursa 4.9.2026 15:30 1.000 TL
330 2015 Ford TRANSIT 350 L KAMYONET Batman 4.9.2026 15:30 1.000 TL
331 2025 Motorsiklet 125 DRIFT L Elazığ 4.9.2026 15:30 1.000 TL
332 2024 Fiat/Tofaş FIORINO COMBI POP 1.4 Kahramanmaraş 4.9.2026 15:30 1.000 TL
333 2024 Motorsiklet 250 NK Kayseri 4.9.2026 15:30 1.000 TL
334 2016 Ford TOURNEO COURIER 1.6 TDCI Hatay 4.9.2026 15:30 1.000 TL
335 2024 Hyundai H100 KAMYONET 2.5 CRDI Aydın 4.9.2026 15:30 1.000 TL
336 2024 Togg T10X Erzurum 4.9.2026 15:30 1.000 TL
337 2006 Fiat/Tofaş DOBLO COMBİ 1.9 PREMİO Nevşehir 4.9.2026 15:30 1.000 TL
338 2006 Renault MEGANE SEDAN AUTHENTIQUE 1.4 Erzurum 4.9.2026 15:30 1.000 TL
339 2014 Mercedes KAMYON AXOR 4140 B E5 Hatay 4.9.2026 15:30 1.000 TL
340 2000 Fiat/Tofaş DOGAN 1.6 İ.E. Malatya 4.9.2026 15:30 1.000 TL
341 2020 Motorsiklet KRAL KR-50 Aksaray 4.9.2026 15:30 1.000 TL
342 2022 Ford KAMYON 4142M 8x4 İzmir 4.9.2026 15:30 1.000 TL
343 1993 Fiat/Tofaş ŞAHİN 1.6 Edirne 4.9.2026 15:30 1.000 TL
344 2017 Renault SYMBOL 1.5 DCI TOUCH Gaziantep 4.9.2026 15:30 1.000 TL
345 2005 Hyundai GETZ 1.3 GLS Eskişehir 4.9.2026 15:30 1.000 TL
346 2012 Ford FIESTA TITANIUM 1.4 TDCI (70) İstanbul 4.9.2026 15:30 1.000 TL
347 2017 Renault CAPTUR 1,2 Amasya 4.9.2026 15:30 1.000 TL
348 2020 Mitsubishi L200 Erzincan 4.9.2026 15:30 1.000 TL
349 2014 Ford FOCUS 1,6 TDCİ Aksaray 4.9.2026 15:30 1.000 TL
350 2021 Mitsubishi L200 Diyarbakır 4.9.2026 15:30 1.000 TL
351 2008 Volvo S40 1.6D Muş 4.9.2026 15:30 1.000 TL
352 2001 Fiat/Tofaş KARTAL 1,6 Aydın 4.9.2026 15:30 1.000 TL
353 1998 Renault CLIO 1.4 RT Mersin 4.9.2026 15:30 1.000 TL
354 2024 Motorsiklet JUPITER 125 Denizli 4.9.2026 15:30 1.000 TL
355 1990 Renault R12 TOROS Şehir Seç 4.9.2026 15:30 1.000 TL
356 2015 Motorsiklet JOYMAX 250i İstanbul 4.9.2026 15:30 1.000 TL
357 2024 Fiat/Tofaş EGEA SEDAN 1.6 M.JET Kayseri 4.9.2026 15:30 1.000 TL
358 2023 Skywell ET5 Şehir Seç 4.9.2026 15:30 1.000 TL
359 2023 Motorsiklet AROME 125 İstanbul 4.9.2026 15:30 1.000 TL
360 2016 Motorsiklet PULSAR RS 200 Ankara 4.9.2026 15:30 1.000 TL
361 2000 Renault 12 TOROS TSW Şanlıurfa 4.9.2026 15:30 1.000 TL
362 2020 Seat LEON 1.5 ECOTSI Kayseri 4.9.2026 15:30 1.000 TL
363 1993 Opel VECTRA 2.0 Kayseri 4.9.2026 15:30 1.000 TL
364 2013 Hyundai i20 1.4 CRDI İstanbul 4.9.2026 15:30 1.000 TL
365 2017 Audi Q3 2.0 TDI Çorum 4.9.2026 15:30 1.000 TL
366 2011 Dacia LOGAN 1.5 DCI MCV BLACKLINE Edirne 4.9.2026 15:30 1.000 TL
367 2014 Mercedes CLA 200 1.6 Eskişehir 4.9.2026 15:30 1.000 TL
368 2020 Opel CORSA 1.2 Antalya 4.9.2026 15:30 1.000 TL
369 1999 Honda ACCORD 2.0 İzmir 4.9.2026 15:30 1.000 TL
370 2018 Honda CIVIC SEDAN 1.6i VTEC Bursa 4.9.2026 15:30 1.000 TL
371 2012 Ford FIESTA TREND 1.4i İzmir 4.9.2026 15:30 1.000 TL
372 2024 Renault CLIO 1,0 TCE İstanbul 4.9.2026 15:30 1.000 TL
373 2025 Opel CORSA 1.2 T İstanbul 4.9.2026 15:30 1.000 TL
374 1987 Fiat/Tofaş DOĞAN 1.6 Ankara 4.9.2026 15:30 1.000 TL
375 2024 Motorsiklet JUPITER 110 Balıkesir 4.9.2026 15:30 1.000 TL
376 2022 Dorse/Römork REİSTREYLER 3AFCRT YARI RÖMORK İzmir 4.9.2026 15:30 1.000 TL
377 2007 Renault CLIO SYMBOL 1.5 DCI Denizli 4.9.2026 15:30 1.000 TL
378 2022 Mercedes EQE 350+ Ankara 4.9.2026 15:30 1.000 TL
379 2023 Honda DIO 110 Ankara 4.9.2026 15:30 1.000 TL
380 2024 Skoda KODIAQ 1.5 TSI MHEV Kayseri 4.9.2026 15:30 1.000 TL
381 2004 Ford FOCUS 1.6i HB Ankara 4.9.2026 15:30 1.000 TL
382 2025 Motorsiklet VRS 125 İstanbul 4.9.2026 15:30 1.000 TL
383 2024 Honda PCX 125 İzmir 4.9.2026 15:30 1.000 TL
384 2013 Opel ASTRA 1,3 CDTİ İzmir 4.9.2026 15:30 1.000 TL
385 1994 Fiat/Tofaş TEMPRA 2.0 İE Kocaeli 4.9.2026 15:30 1.000 TL
386 2018 Motorsiklet X-MAX 400 Malatya 4.9.2026 15:30 1.000 TL
387 2023 Isuzu NPR 3D Yozgat 4.9.2026 15:30 1.000 TL
388 2006 Ford FIESTA 1.4 COMFORT Eskişehir 4.9.2026 15:30 1.000 TL
389 2012 Dorse/Römork FRİGOFİRK YARI RÖMORK Hatay 4.9.2026 15:30 1.000 TL
390 2022 Motorsiklet BRILLIANT 125 Muğla 4.9.2026 15:30 1.000 TL
391 2012 Nissan QASHQAI 1.5 DCI PLATINUM Denizli 4.9.2026 15:30 1.000 TL
392 2005 Volkswagen PASSAT 1.9 TDI Ankara 4.9.2026 15:30 1.000 TL
393 2015 Mercedes CEKICI AXOR 1840 LS E5 Adana 4.9.2026 15:30 1.000 TL
394 2024 Mercedes CEKICI ACTROS 1848 LS 4x2 FL Hatay 4.9.2026 15:30 1.000 TL
395 2015 Renault CLIO HB 1.5 DCI İzmir 4.9.2026 15:30 1.000 TL
396 2005 Hyundai H100 PANELVAN 2.6 Çanakkale 4.9.2026 15:30 1.000 TL
397 2022 Traktör TC5.80 BİÇERDÖVER Şehir Seç 4.9.2026 15:30 1.000 TL
398 2025 Motorsiklet SOFT 50 Bolu 4.9.2026 15:30 1.000 TL
399 1994 Toyota COROLLA 1.3 XL Şanlıurfa 4.9.2026 15:30 1.000 TL
400 2023 Citroen C4 X 1.2 PURETECH İstanbul 4.9.2026 15:30 1.000 TL
401 1998 Hyundai ACCENT 1.3 Konya 4.9.2026 15:30 1.000 TL
402 1993 Fiat/Tofaş DOGAN SLX İzmir 4.9.2026 15:30 1.000 TL
403 1996 Fiat/Tofaş KARTAL S Bursa 4.9.2026 15:30 1.000 TL
404 2005 Opel OPEL ASTRA HB 1.3 CDTİ ENJOY Samsun 4.9.2026 15:30 1.000 TL
405 2024 Motorsiklet NEWLIGHT 125 PRO Mersin 4.9.2026 15:30 1.000 TL
406 2018 Bmw X5 XDRIVE25d Şanlıurfa 4.9.2026 15:30 1.000 TL
407 1997 Renault BROADWAY 1.4 Konya 4.9.2026 15:30 1.000 TL
408 2004 Citroen C3 1.4 HDI SX İzmir 4.9.2026 15:30 1.000 TL
409 2024 Peugeot 2008 1.2 Ankara 4.9.2026 15:30 1.000 TL
410 1996 Daf FT 95 430 Burdur 4.9.2026 15:30 1.000 TL
411 2024 Chery TIGGO 8 PRO MAX 1.6 İstanbul 4.9.2026 15:30 1.000 TL
412 1993 Honda CIVIC 1.5 Şehir Seç 4.9.2026 15:30 1.000 TL
413 2021 Honda PCX 125 Mersin 4.9.2026 15:30 1.000 TL
414 2003 Nissan PRIMERA 1.6 TEKNA SEDAN Şanlıurfa 4.9.2026 15:30 1.000 TL
415 2012 Nissan JUKE 1.6 TEKNA Diyarbakır 4.9.2026 15:30 1.000 TL
416 2024 Motorsiklet 250 SR İstanbul 4.9.2026 15:30 1.000 TL
417 2025 Opel CORSA 1.2 İstanbul 4.9.2026 15:30 1.000 TL
418 2005 Renault MEGANE II HB 1.6 Bingöl 4.9.2026 15:30 1.000 TL
419 2023 Motorsiklet JUPITER 125 Şehir Seç 4.9.2026 15:30 1.000 TL
420 2017 Peugeot BOXER VAN Ankara 4.9.2026 15:30 1.000 TL
421 2013 Peugeot 208 1,4 HDI Antalya 4.9.2026 15:30 1.000 TL
422 2014 Mercedes C 180 1.6 Denizli 4.9.2026 15:30 1.000 TL
423 2017 Skoda SUPERB 1.6 TDI Ankara 4.9.2026 15:30 1.000 TL
424 2006 Fiat/Tofaş DOBLO CARGO 1.4 ACTUAL Sakarya 4.9.2026 15:30 1.000 TL
425 2016 Renault FLUENCE 1.5 DCI 110 EDC Batman 4.9.2026 15:30 1.000 TL
426 2025 Motorsiklet BRILLIANT 50 İstanbul 4.9.2026 15:30 1.000 TL
427 2007 Renault SYMBOL AUTHENTIQUE 1.5 DCI Antalya 4.9.2026 15:30 1.000 TL
428 2017 Hyundai ELANTRA 1.6 D-CVVT STYLE Ankara 4.9.2026 15:30 1.000 TL
429 2023 Mg MG4 ELECTRIC Antalya 4.9.2026 15:30 1.000 TL
430 2018 Renault CLIO HB 1.2 Tekirdağ 4.9.2026 15:30 1.000 TL
431 2022 Fiat/Tofaş EGEA CROSS 1.4 FIRE 95 Denizli 4.9.2026 15:30 1.000 TL
432 2024 Motorsiklet QUANTUM 50 Adıyaman 4.9.2026 15:30 1.000 TL
433 2017 Citroen C-ELLYSE 1.6 HDI 92 Bursa 4.9.2026 15:30 1.000 TL
434 1993 Renault R9 BROADWAY 1.4 Kütahya 4.9.2026 15:30 1.000 TL
435 2023 Motorsiklet NMAX 155 İzmir 4.9.2026 15:30 1.000 TL
436 2015 Peugeot 508 1.6 BLUEHD İstanbul 4.9.2026 15:30 1.000 TL
437 2011 Fiat/Tofaş PUNTO 1.3 MULTIJET Bursa 4.9.2026 15:30 1.000 TL
438 2023 Ford TOURNEO COURIER 1.0 E.BOOST 100 Şehir Seç 4.9.2026 15:30 1.000 TL
439 2010 Hyundai ACCENT ERA 1.4 OV Ankara 4.9.2026 15:30 1.000 TL
440 2020 Skoda KAROQ 1.6 TDI 115 SCR DSG Bitlis 4.9.2026 15:30 1.000 TL
441 2025 Motorsiklet KUBA BRILLIANT 125 İstanbul 4.9.2026 15:30 1.000 TL
442 2006 Jaguar X TYPE 2.0 D EXECUTIVE İstanbul 4.9.2026 15:30 1.000 TL
443 2006 Ford FUSION 1.6 TDCi LUX Erzurum 4.9.2026 15:30 1.000 TL
444 2005 Toyota YARIS 1.0 İstanbul 4.9.2026 15:30 1.000 TL
445 2015 Motorsiklet XMAX 250 Balıkesir 4.9.2026 15:30 1.000 TL
446 2024 Honda HONDA ADV350 İstanbul 4.9.2026 15:30 1.000 TL
447 1996 Suzuki VITARA 1.6 JLX Şehir Seç 4.9.2026 15:30 1.000 TL
448 2018 Peugeot 301 1.6 BLUEHDI Şehir Seç 4.9.2026 15:30 1.000 TL
449 2007 Honda CIVIC SEDAN 1.6 Sinop 4.9.2026 15:30 1.000 TL
450 2008 Fiat/Tofaş DOBLO CARGO 1.4 ACTUAL Ankara 4.9.2026 15:30 1.000 TL
451 2021 Renault MEGANE 1,3 TCE Ankara 4.9.2026 15:30 1.000 TL
452 1993 Toyota COROLLA 1,3 Şehir Seç 4.9.2026 15:30 1.000 TL
453 1985 Fiat/Tofaş 131 Elazığ 4.9.2026 15:30 1.000 TL
454 2024 Ford TRANSİT 16+1 Antalya 4.9.2026 15:30 1.000 TL
455 2019 Motorsiklet 250 NK Kocaeli 4.9.2026 15:30 1.000 TL
456 2001 Volkswagen BORA 1.6 İzmir 4.9.2026 15:30 1.000 TL
457 2006 Peugeot 307 COMFORT 1.6 HDI Samsun 4.9.2026 15:30 1.000 TL
458 2025 Hyundai IONIQ 5 Bursa 4.9.2026 15:30 1.000 TL
459 2024 Honda PCX 125 Şehir Seç 4.9.2026 15:30 1.000 TL
460 2022 Ford TOURNEO COURIER KOMBI 1.5TDCI Ankara 4.9.2026 15:30 1.000 TL
461 2020 Jeep RENEGADE 1.6 MJET Ankara 4.9.2026 15:30 1.000 TL
462 2018 Dacia LOGAN MCV 1,5 DCI İzmir 4.9.2026 15:30 1.000 TL
463 2018 Ford KAMYON 4142 Ankara 4.9.2026 15:30 1.000 TL
464 2025 Audi A3 SPORTBACK 35 TFSI İstanbul 4.9.2026 15:30 1.000 TL
465 2010 Volkswagen GOLF VI 1.4 TSI (122) HIGHLINE TIPTR.DSG Tekirdağ 4.9.2026 15:30 1.000 TL
466 2026 Motorsiklet MAX PRO150 T Artvin 4.9.2026 15:30 1.000 TL
467 2012 Toyota YARIS 1.33 FUN Kastamonu 4.9.2026 15:30 1.000 TL
468 2023 Motorsiklet BRİLLİANT 125 İstanbul 4.9.2026 15:30 1.000 TL
469 2019 Ford TOURNEO COURIER KOMBI 1.5 TDCI 75 İzmir 4.9.2026 15:30 1.000 TL
470 2004 Peugeot PARTNER COMBI VAN 190 C 1.9 D Elazığ 4.9.2026 15:30 1.000 TL
471 2008 Hyundai GETZ 1.5 CRDi VGT (120) Edirne 4.9.2026 15:30 1.000 TL
472 2010 Mazda 3 HB 1.6 (105) Ankara 4.9.2026 15:30 1.000 TL
473 2019 Motorsiklet JET14 125 İstanbul 4.9.2026 15:30 1.000 TL
474 2020 Fiat/Tofaş EGEA SEDAN 1.6 M.JET 120 DCT Antalya 4.9.2026 15:30 1.000 TL
475 2005 Fiat/Tofaş MAREA 1.6 LIBERTY Bursa 4.9.2026 15:30 1.000 TL
476 2012 Ford FOCUS 1.0 ECOBOOST 125 Erzurum 4.9.2026 15:30 1.000 TL
477 2024 Honda PCX 125 Ankara 4.9.2026 15:30 1.000 TL
478 2023 Motorsiklet KUBA CG50 PRO Hatay 4.9.2026 15:30 1.000 TL
479 2024 Renault CAPTUR 1.3 HYBRID Batman 4.9.2026 15:30 1.000 TL
480 2006 Mazda 3 1.6 HB Elazığ 4.9.2026 15:30 1.000 TL
481 2009 Fiat/Tofaş PUNTO 1.4 Şehir Seç 4.9.2026 15:30 1.000 TL
482 2022 Renault MEGANE 1,3 TCE Şanlıurfa 4.9.2026 15:30 1.000 TL
483 2020 Toyota COROLLA 1.6 Ankara 4.9.2026 15:30 1.000 TL
484 2022 Ford TOURNEO COURIER KOMBI 1.5 TDCI 100 Şehir Seç 4.9.2026 15:30 1.000 TL
485 1999 Renault 19 EUROPA 1.6i RNE Kastamonu 4.9.2026 15:30 1.000 TL
486 2022 Renault TALIANT 1.0 TURBO Şanlıurfa 4.9.2026 15:30 1.000 TL
487 1992 Fiat/Tofaş ŞAHİN 1.6 Niğde 4.9.2026 15:30 1.000 TL
488 2013 Hyundai i30 1.6 CRDI Ankara 4.9.2026 15:30 1.000 TL
489 2025 Ford DUCATO VAN 2.2 D Kayseri 4.9.2026 15:30 1.000 TL
490 2015 Fiat/Tofaş FIORINO COMBI 1.3 M.JET Şehir Seç 4.9.2026 15:30 1.000 TL
491 2023 Kia STONIC 1.4 Ankara 4.9.2026 15:30 1.000 TL
492 2025 Motorsiklet ICON 50 ST İstanbul 4.9.2026 15:30 1.000 TL
493 2023 Motorsiklet AROME 125 Mersin 4.9.2026 15:30 1.000 TL
494 2008 Mercedes VITO CDI Şehir Seç 4.9.2026 15:30 1.000 TL
495 2024 Motorsiklet MT 25 Antalya 4.9.2026 15:30 1.000 TL
496 2018 Toyota C-HR 1.8 HYBRID İzmir 4.9.2026 15:30 1.000 TL
497 2008 Iveco DAILY KAMYONET 35 C 15 CC 4100 İstanbul 4.9.2026 15:30 1.000 TL
498 2008 Fiat/Tofaş G.PUNTO 1.4 FIRE ACTIVE Aydın 4.9.2026 15:30 1.000 TL
499 2008 Ford T. CONNECT KOMBI K210S 1.8 TDCi (75) Sinop 4.9.2026 15:30 1.000 TL
500 1994 Renault R9 1.6 FAİRWAY Şanlıurfa 4.9.2026 15:30 1.000 TL
501 2016 Dacia SANDERO STEPWAY 1.5 DCI 90 Mersin 4.9.2026 15:30 1.000 TL
502 2016 Motorsiklet ATTACK 100 Kayseri 4.9.2026 15:30 1.000 TL
503 1998 Hyundai ACCENT 1.5 Isparta 4.9.2026 15:30 1.000 TL
504 2012 Mercedes VİTO 113 CDİ 9+1 Trabzon 4.9.2026 15:30 1.000 TL
505 2016 Hyundai TUCSON 1.6 T-GDI Ankara 4.9.2026 15:30 1.000 TL
506 1986 Renault 9 BROADWAY Amasya 4.9.2026 15:30 1.000 TL
507 2024 Motorsiklet JET X 125 Trabzon 4.9.2026 15:30 1.000 TL
508 2023 Motorsiklet 250 SR Şehir Seç 4.9.2026 15:30 1.000 TL
509 2010 Renault SYMBOL AUTHENTIQUE 1.5 DCI İstanbul 4.9.2026 15:30 1.000 TL
510 2000 Hyundai ACCENT 1.3 LX Bartın 4.9.2026 15:30 1.000 TL
511 2010 Volkswagen PASSAT 1.4 TSI Van 4.9.2026 15:30 1.000 TL
512 2023 Motorsiklet JOYRIDE Şanlıurfa 4.9.2026 15:30 1.000 TL
513 2021 Peugeot 3008 1.6 İstanbul 4.9.2026 15:30 1.000 TL
514 2006 Peugeot PARTNER COMBİ 1.9D Şehir Seç 4.9.2026 15:30 1.000 TL
515 2007 Hyundai SONATA 2.0 CRDi Şehir Seç 4.9.2026 15:30 1.000 TL
516 2013 Hyundai ACCENT BLUE Şehir Seç 4.9.2026 15:30 1.000 TL
517 2020 Ford TOURNEO COURIER 1.5 TDCİ İstanbul 4.9.2026 15:30 1.000 TL
518 2015 Renault KADJAR TOUCH 1.2 Erzincan 4.9.2026 15:30 1.000 TL
519 1991 Fiat/Tofaş ŞAHİN 1.6 Artvin 4.9.2026 15:30 1.000 TL
520 2013 Volkswagen AMAROK 2.0 TDI Giresun 4.9.2026 15:30 1.000 TL
521 2002 Peugeot 307 XS 1.6 Şehir Seç 4.9.2026 15:30 1.000 TL
522 2024 Honda DIO 110 Şehir Seç 4.9.2026 15:30 1.000 TL
523 2008 Hyundai i30 1.6 CRDi Bursa 4.9.2026 15:30 1.000 TL
524 1993 Fiat/Tofaş TEMPRA SXA Bursa 4.9.2026 15:30 1.000 TL
525 2016 Opel CORSA 1.4 90 Aydın 4.9.2026 15:30 1.000 TL
526 2020 Volkswagen PASSAT 1.6 TDI BMT 120 DSG Gaziantep 4.9.2026 15:30 1.000 TL
527 2026 Motorsiklet SMART 50 Balıkesir 4.9.2026 15:30 1.000 TL
528 2023 Motorsiklet 250 CL-X Kahramanmaraş 4.9.2026 15:30 1.000 TL
529 1995 Mercedes E 200 Adana 4.9.2026 15:30 1.000 TL
530 2023 Renault MEGANE SEDAN 1.3 TCE EDC 140 Ankara 4.9.2026 15:30 1.000 TL
531 2017 Motorsiklet MT 25 Kayseri 4.9.2026 15:30 1.000 TL
532 2015 Hyundai I30 1.6 CRDİ Aydın 4.9.2026 15:30 1.000 TL
533 2014 Ford TOURNEO COURIER KOMBI 1.6 TDCI 95 Çanakkale 4.9.2026 15:30 1.000 TL
534 1993 Opel VECTRA Erzincan 4.9.2026 15:30 1.000 TL
535 2016 Hyundai ACCENT BLUE 1.6 CRDI Kayseri 4.9.2026 15:30 1.000 TL
536 2022 Renault MEGANE SEDAN 1.5 BLUEDCI İstanbul 4.9.2026 15:30 1.000 TL
537 2021 Renault MEGANE SEDAN 1.5 BLUEDCI Diyarbakır 4.9.2026 15:30 1.000 TL
538 2017 Honda CIVIC SEDAN 1.6İ VTEC Kocaeli 4.9.2026 15:30 1.000 TL
539 2012 Ford FOCUS SEDAN 1.6 TDCI Antalya 4.9.2026 15:30 1.000 TL
540 2012 Chevrolet CRUZE 1.6 Malatya 4.9.2026 15:30 1.000 TL
541 2014 Renault FLUENCE 1.5 DCI 90 Şehir Seç 4.9.2026 15:30 1.000 TL
542 2016 Nissan QASHQAI 1.2 TURBO SKYPACK X-TRONIC İzmir 4.9.2026 15:30 1.000 TL
543 2023 Motorsiklet R25 ABS Mersin 4.9.2026 15:30 1.000 TL
544 2025 Motorsiklet EGE 50 Mersin 4.9.2026 15:30 1.000 TL
545 2010 Motorsiklet KLX 250 İstanbul 4.9.2026 15:30 1.000 TL
546 2015 Audi A6 2.0 TDI (190) S TRONIC PI Ankara 4.9.2026 15:30 1.000 TL
547 2020 Honda PCX 125 Gaziantep 4.9.2026 15:30 1.000 TL
548 2011 Volkswagen CADDY KOMBI 1.6 TDI (102) Antalya 4.9.2026 15:30 1.000 TL
549 2013 Dacia DOKKER COMBI AMBIANCE 1.5 DCI 90 Kayseri 4.9.2026 15:30 1.000 TL
550 2023 Motorsiklet FREEDOM 50 Samsun 4.9.2026 15:30 1.000 TL
551 2025 Motorsiklet YUKI 110 Konya 4.9.2026 15:30 1.000 TL
552 2016 Bmw 520i SEDAN 1.6 (170) Bursa 4.9.2026 15:30 1.000 TL
553 2008 Bmw 118i Antalya 4.9.2026 15:30 1.000 TL
554 2023 Dacia JOGGER 1.0 ECO-G 100 7 KOLTUKLU Erzurum 4.9.2026 15:30 1.000 TL
555 2014 Mercedes E 250 COUPE Antalya 4.9.2026 15:30 1.000 TL
556 2012 Motorsiklet YZF R125 Antalya 4.9.2026 15:30 1.000 TL
557 0 Emtea İstanbul 4.9.2026 15:30 TL
558 1996 Fiat/Tofaş SAHIN 1.6 Yozgat 4.9.2026 15:30 1.000 TL
559 2016 Motorsiklet YAMAHA GPD 125-A Denizli 4.9.2026 15:30 1.000 TL
560 2005 Hyundai ACCENT 1.6 Adıyaman 4.9.2026 15:30 1.000 TL
561 2014 Ford TRANSIT VAN Kayseri 4.9.2026 15:30 1.000 TL
562 2016 Opel CORSA 1.4 Kayseri 4.9.2026 15:30 1.000 TL
563 2017 Volkswagen POLO 1.4 TDI Antalya 4.9.2026 15:30 1.000 TL
564 2023 Fiat/Tofaş EGEA SEDAN 1.4 FIRE Van 4.9.2026 15:30 1.000 TL
565 1993 Fiat/Tofaş TEMPRA SX Ankara 4.9.2026 15:30 1.000 TL
566 1988 Renault 12 TSW TOROS Balıkesir 4.9.2026 15:30 1.000 TL
567 2024 Ford TRANSIT 16+1 Antalya 4.9.2026 15:30 1.000 TL
568 2024 Chery TIGGO 7 PRO 1.6 T-GDI EXCELLENT Gaziantep 4.9.2026 15:30 1.000 TL
569 2018 Volkswagen CADDY 2.0 TDI Batman 4.9.2026 15:30 1.000 TL
570 2012 Ford FIESTA 1.4 İzmir 4.9.2026 15:30 1.000 TL
571 2012 Renault KANGOO MULTIX 1,5 Manisa 4.9.2026 15:30 1.000 TL
572 1999 Toyota COROLLA 1.3 Kütahya 4.9.2026 15:30 1.000 TL
573 2025 Dorse/Römork SET TREYLER İzmir 4.9.2026 15:30 1.000 TL
574 2020 Ford TOURNEOCOURIER KOMBI 1.5 TDCI 100 E6.2 DELUXE Ankara 4.9.2026 15:45 437.000 TL
575 2025 Fiat/Tofaş DOBLO CARGO MAXI 1.5 100 BLUEHDI İstanbul 4.9.2026 15:45 495.000 TL
576 2020 Fiat/Tofaş EGEA SEDAN EASY 1.3 M.JET 95 Ankara 4.9.2026 15:45 447.000 TL
577 2020 Fiat/Tofaş DUCATO VAN MAXI 17M3 2.3 140 E6D İstanbul 4.9.2026 15:45 497.500 TL
578 2013 Skoda OCTAVIA AMBITION 1.6 TDI Ankara 4.9.2026 15:45 443.000 TL
579 2019 Renault MEGANE SEDAN TOUCH 1.6 16V 115 Adıyaman 4.9.2026 15:45 497.000 TL
580 2020 Renault CLIO JOY 1.5 BLUEDCI 85 İstanbul 4.9.2026 15:45 455.000 TL
581 2023 Fiat/Tofaş FIORINO COMBI PREMIO 1.3 M.JET 95 İstanbul 4.9.2026 15:45 433.500 TL
582 2017 Opel ASTRA NB 1.6 DIZEL 136 AT DESIGN İstanbul 4.9.2026 15:45 416.000 TL
583 2012 Otokar SULTAN 28+1 Hatay 4.9.2026 15:45 442.500 TL
584 2020 Ford TOURNEOCOURIER KOMBI 1.5 TDCI 100 E6.2 DELUXE Ankara 4.9.2026 15:45 401.000 TL
585 2011 Ford FOCUS COMFORT 5K 1.6i (100) OV İstanbul 4.9.2026 15:45 402.000 TL
586 2022 Renault MASTER MINIBUS 16+1 Ankara 4.9.2026 15:45 481.000 TL
587 2021 Kia BONGO KAMYONET 2.5 DIZEL 130 KONFOR Ankara 4.9.2026 15:45 402.500 TL
588 2014 Isuzu NPR 3D KAMYON Ankara 4.9.2026 15:45 457.000 TL
589 2014 Iveco EUROCARGO 150 E Adana 4.9.2026 15:45 422.000 TL
590 2014 Ford KAMYON CARGO 2526 Erzurum 4.9.2026 15:45 421.500 TL
591 2007 Dodge NITRO R/T 4.0 Ankara 4.9.2026 15:45 475.000 TL
592 2026 Diger TENAX C 35 TEK KABİN KAMYONET Ankara 4.9.2026 16:00 826.000 TL
593 2014 Motorsiklet TRIUMPH DAYTONA 675 R İstanbul 4.9.2026 16:00 528.000 TL
594 2019 Ford KUGA TITANIUM 5D 1.5 TDCI 120 POWERSHIFT Ankara 4.9.2026 16:00 838.000 TL
595 2023 Ford FOCUS TITANIUM STIL 4 KAPI 1.0 ECOBOOST 125 İstanbul 4.9.2026 16:00 748.000 TL
596 2016 Fiat/Tofaş EGEA SEDAN LOUNGE 1.6 M.JET 120 Ankara 4.9.2026 16:00 588.000 TL
597 2012 Volkswagen TOUAREG 3.0 TDI İstanbul 4.9.2026 16:00 828.000 TL
598 2025 Renault CLIO EVOLUTION 1.0 TCE X-TRONIC 90 İstanbul 4.9.2026 16:00 788.000 TL
599 2015 Opel MOKKA 1.6 CDTI ENJOY İstanbul 4.9.2026 16:00 576.000 TL
600 2025 Opel CORSA 1.2 100 AT8 EDITION FL İstanbul 4.9.2026 16:00 728.000 TL
601 2022 Citroen BERLINGO FEEL STIL 1.5 BLUEHDI 130 S&S EAT8 İstanbul 4.9.2026 16:00 738.000 TL
602 2011 Audi A3 SPORTBACK 1.4 TFSI 125 ATTRACTION S TRONIC İstanbul 4.9.2026 16:00 648.000 TL
603 2012 Volkswagen TIGUAN 1.4 TSI (122) BMT WHITE NIGHT Ankara 4.9.2026 16:00 618.000 TL
604 2014 Nissan X-TRAIL 1.6 DCI BLACK EDITION 4x2 X-TRONIC Ankara 4.9.2026 16:00 679.000 TL
605 2022 Honda CITY 4D 1.5 EXECUTIVE AT Ankara 4.9.2026 16:00 621.000 TL
606 2014 Chrysler JEEP COMPASS 2.0 LIMITED İstanbul 4.9.2026 16:00 580.000 TL
607 2021 Fiat/Tofaş DUCATO MINIBUS 15+1 Balıkesir 4.9.2026 16:00 571.500 TL
608 2021 Motorsiklet DUCATI SUPERSPORT İstanbul 4.9.2026 16:00 593.000 TL
609 2008 Mercedes ML 350 4MATİC Ankara 4.9.2026 16:00 526.000 TL
610 2023 Chery OMODA 5 1.6 T-GDI Mersin 4.9.2026 16:30 911.250 TL
611 2013 Honda CIVIC SEDAN 1.6 Çorum 4.9.2026 16:30 321.000 TL
612 2020 Ford CEKICI F-MAX COMFORT PLUS PACK Diyarbakır 4.9.2026 16:30 666.250 TL
613 2023 Skoda SUPERB 1.5 TSI Sivas 4.9.2026 16:30 1.120.000 TL
614 2017 Nissan MC QASHQAI 1.6 DCI XTRO.PLATINUM PREMIUM Gaziantep 4.9.2026 16:30 350.000 TL
615 2023 Citroen C3 1.2 PURETECH Eskişehir 4.9.2026 16:30 9.500 TL
616 2025 Peugeot EXPERT 1,5 BLUEHDI Ankara 4.9.2026 16:30 351.000 TL
617 2014 Mitsubishi L200 CIFT KABIN KAMYONET Antalya 4.9.2026 16:30 91.500 TL
618 2018 Honda CR-V 1.6 i-DTEC Ankara 4.9.2026 16:30 910.000 TL
619 1988 Renault R12 TOROS Niğde 4.9.2026 16:30 1.000 TL
620 2016 Scania KAMYON G320 İzmir 4.9.2026 16:30 1.000 TL
621 2021 Skoda OCTAVIA 1.5 e-Tec İstanbul 4.9.2026 16:30 1.500 TL
622 2013 Renault SYMBOL 1,5 DCİ Gaziantep 4.9.2026 16:30 5.000 TL
623 2013 Volkswagen TIGUAN 1.4 TSI İzmir 4.9.2026 16:30 500 TL
624 2024 Motorsiklet SMART 50 Samsun 4.9.2026 16:30 1.000 TL
625 2005 Peugeot PARTNER VAN 1,9 D COMFORT Bolu 4.9.2026 16:30 1.000 TL
626 2022 Toyota HILUX 2.4 D-4D Erzurum 4.9.2026 16:30 1.000 TL
627 2012 Dorse/Römork SILOBAS YARI RÖMORK Aydın 4.9.2026 16:30 1.000 TL
628 2006 Ford FOCUS 1.6 TDCi Kahramanmaraş 4.9.2026 16:30 1.000 TL
629 2023 Hyundai i20 1.0 T-GDI İstanbul 4.9.2026 16:30 1.000 TL
630 2022 Motorsiklet DOMINAR D 250 Çorum 4.9.2026 16:30 1.000 TL
631 2005 Mercedes E 200 K Kütahya 4.9.2026 16:30 1.000 TL
632 2025 Honda NSS 250A FORZA Muğla 4.9.2026 16:30 1.000 TL
633 2007 Chevrolet CAPTIVA 2.0 D Rize 4.9.2026 16:30 1.000 TL
634 2016 Ford TOURNEO CONNECT 1.6 TDCI Konya 4.9.2026 16:30 1.000 TL
635 2013 Skoda OCTAVIA 1.6 TDI Malatya 4.9.2026 16:30 1.000 TL
636 2000 Bmc KAMYON FATIH 220 26 Afyonkarahisar 4.9.2026 16:30 35.500 TL
637 2016 Fiat/Tofaş DOBLO COMBI 1.3 M.JET İstanbul 4.9.2026 16:30 75.000 TL
638 2017 Fiat/Tofaş EGEA 1,6 MULTİJET Bursa 4.9.2026 16:30 1.000 TL
639 2025 Togg T10X V2 RWD UZUN MENZIL 160KW İstanbul 4.9.2026 16:30 801.000 TL
640 2011 Citroen C5 3 SX 1.6 HDI Sakarya 4.9.2026 16:30 1.000 TL
641 2000 Opel ASTRA GL 1.6 HATCBACK Sakarya 4.9.2026 16:30 65.500 TL
642 1983 Fiat/Tofaş 131 DOGAN L Balıkesir 4.9.2026 16:30 1.000 TL
643 1998 Ford ESCORT 1.6i CL SEDAN Eskişehir 4.9.2026 16:30 1.000 TL
644 2012 Volkswagen POLO 1.2 (70) TRENDLINE Van 4.9.2026 16:30 1.000 TL
645 2010 Geely CK ECHO 1.3 BASIC Erzurum 4.9.2026 16:30 1.000 TL
646 2025 Motorsiklet MONDIAL SCOOTER FURY 110i Ankara 4.9.2026 16:30 1.000 TL
647 2005 Motorsiklet PIAGGIO SKIPPER 150 İstanbul 4.9.2026 16:30 1.000 TL
648 2023 Audi E-TRON S LINE 55 QUATTRO Ankara 4.9.2026 16:30 1.000.000 TL
649 2025 Mercedes CLA 45 S 4MATIC+ FINAL EDT İstanbul 4.9.2026 16:30 3.500.000 TL
650 2015 Magirus SULTAN 140S COMFORT (27+1+1) Ankara 4.9.2026 16:30 1.000 TL
651 2023 Daf XG 480 FT Mersin 4.9.2026 16:30 1.000 TL
652 2023 Renault MEGANE SEDAN ICON 1.3 TCE EDC 140 FAZ2 İstanbul 4.9.2026 16:30 1.000 TL
653 2024 Motorsiklet RKS NEWLIGHT 125 PRO İstanbul 4.9.2026 16:30 1.000 TL
654 2014 Chrysler JEEP RENEGADE 1.6 MULTIJET LIMITED İstanbul 4.9.2026 16:30 1.000 TL
655 2026 Fiat/Tofaş EGEA SEDAN EASY 1.6 M.JET 130 DCT GSR Samsun 4.9.2026 16:30 300.000 TL
656 2026 Motorsiklet MONDIAL SCOOTER 50 REVIVAL İstanbul 4.9.2026 16:30 1.000 TL
657 2012 Motorsiklet HONDA CBF 250 Bursa 4.9.2026 16:30 1.000 TL
658 2004 Toyota COROLLA 1.6 SOL HB Eskişehir 4.9.2026 16:30 1.000 TL
659 2024 Motorsiklet ARORA MOJITO 125 İstanbul 4.9.2026 16:30 1.000 TL
660 2004 Audi A6 1.8T MULTITRONIC Afyonkarahisar 4.9.2026 16:30 1.000 TL
661 2025 Motorsiklet RKS PRECIO 250 MAX İstanbul 4.9.2026 16:30 1.000 TL
662 2025 Motorsiklet HONDA DIO İstanbul 4.9.2026 16:30 4.000 TL
663 2022 Motorsiklet DUCATI MULTISTRADA V4 PIKES PEAK İstanbul 4.9.2026 16:30 1.000 TL
664 1993 Renault 12 TSW TOROS 5 VT Diyarbakır 4.9.2026 16:30 1.000 TL
665 2012 Mitsubishi L200 CIFT KABIN KAMYONET 4x2 INVITE Ankara 4.9.2026 16:30 1.000 TL
666 2009 Renault SYMBOL EXPRESSION 1.4 75 İstanbul 4.9.2026 16:30 1.000 TL
667 2006 Ford FOCUS 1.6i SW TREND (100) Ankara 4.9.2026 16:30 70.000 TL
668 2023 Motorsiklet RKS R250 Sakarya 4.9.2026 16:30 500 TL
669 2014 Renault CLIO HB JOY 1.5 DCI 75 Mersin 4.9.2026 16:30 1.000 TL
670 2016 Toyota AURIS 1.33 LIFE İstanbul 4.9.2026 16:30 1.000 TL
671 1999 Proton PERSONA 1.6 HB OV Malatya 4.9.2026 16:30 500 TL
672 2023 Togg T10X V2 RWD UZUN MENZIL 160KW Bursa 4.9.2026 16:30 1.000 TL
673 2023 Fiat/Tofaş DOBLO COMBI URBAN 1.5 130 BLUEHDI İstanbul 4.9.2026 16:30 500 TL
674 2006 Nissan MICRA 1.2 MOOD İstanbul 4.9.2026 16:30 1.000 TL
675 2006 Renault CLIO SYMBOL ALIZE 1.5 DCI Kütahya 4.9.2026 16:30 1.000 TL
676 2016 Renault FLUENCE ICON 1.5 DCI 110 EDC İstanbul 4.9.2026 16:30 500 TL
677 2015 Bmw 320İ ED 170 SEDAN SPORT LINE İstanbul 4.9.2026 16:30 1.000 TL
678 1993 Renault 9 BROADWAY Balıkesir 4.9.2026 16:30 500 TL
679 2012 Honda CIVIC SEDAN 1.6 (125) PREMIUM (Y) İstanbul 4.9.2026 16:30 500 TL
680 2022 Land Rover DEFENDER 90 3.0 DIZEL D200 (2 KISILIK) NIG İstanbul 4.9.2026 16:30 422.000 TL
681 2013 Isuzu NPR 3D Çorum 4.9.2026 16:30 601.500 TL
682 1997 Opel VECTRA 1.6 GL Düzce 4.9.2026 16:30 1.000 TL
683 2024 Mercedes SPRINTER 417 CDI 19+1 Antalya 4.9.2026 16:30 1.500 TL
684 2016 Seat IBIZA 1.2 TSI 90 STYLE İstanbul 4.9.2026 16:30 1.000 TL
685 2021 Suzuki SWIFT HIBRIT 1.2 GL TECHNO CVT İstanbul 4.9.2026 16:30 500 TL
686 1998 Volkswagen POLO 1.6 4 KAPI Konya 4.9.2026 16:30 500 TL
687 2017 Dacia DUSTER AMBIANCE 4X2 1.5 DCI 90 Mardin 4.9.2026 16:30 1.000 TL
688 2023 Motorsiklet MONDIAL 125 DRIFT L CBS Mersin 4.9.2026 16:30 500 TL
689 2005 Fiat/Tofaş ALBEA 1.3 MULTIJET Aydın 4.9.2026 16:30 500 TL
690 2023 Motorsiklet KUBA VN50 PRO Muğla 4.9.2026 16:30 500 TL
691 2022 Motorsiklet RKS PRIVATE 125 (GST125T-6) Denizli 4.9.2026 16:30 500 TL
692 2025 Motorsiklet HONDA GL 1800 GOLD WING DCT İstanbul 4.9.2026 16:30 1.445.000 TL
693 2012 Ford CARGO 3238 S 8x2 Sakarya 4.9.2026 16:30 1.045.000 TL
694 2026 Renault DUSTER TECHNO TURBO TCE EDC 145 Ankara 4.9.2026 16:30 998.500 TL
695 2026 Renault CLIO EVOLUTION 1.0 TCE X-TRONIC 90 Ankara 4.9.2026 16:30 894.000 TL
696 2024 Renault MEGANE E-TECH ICONIC EV60 220 Ankara 4.9.2026 16:30 1.027.000 TL
697 2011 Mercedes TRAVEGO 15 SHD Samsun 4.9.2026 16:30 2.088.000 TL
698 2014 Mercedes ACTROS 1844 LS E5 Kayseri 4.9.2026 16:30 1.187.000 TL
699 2015 Mercedes CLA 200 1.6 URBAN İstanbul 4.9.2026 16:30 985.000 TL
700 2021 Hyundai BAYON 1.4 MPI STYLE AT İstanbul 4.9.2026 16:30 857.000 TL
701 2024 Daf CEKICI XG 480 FT Kocaeli 4.9.2026 16:30 2.595.000 TL
702 2024 Ford ÇEKİCİ F-MAX 500 Bursa 4.9.2026 16:30 1.409.000 TL
703 2024 Skoda OCTAVIA PREMIUM 1.5 TSI MHEV 150 DSG FL Ankara 4.9.2026 16:30 1.036.000 TL
704 2025 Volvo ÇEKİCİ FM 500 Kocaeli 4.9.2026 16:30 2.883.000 TL
705 2024 Skoda SUPERB 1.5 TSI MHEV 150 DSG PREMIUM FL İstanbul 4.9.2026 16:30 1.080.500 TL
706 2025 Skoda OCTAVIA PREMIUM 1.5 TSI MHEV 150 DSG FL İstanbul 4.9.2026 16:30 927.000 TL
707 2011 Audi A7 SPORTBACK 3.0 TFSI (300) QUATTRO STRO İstanbul 4.9.2026 16:30 1.116.500 TL
708 2025 Mercedes C 43 AMG 4 MATIC Ankara 4.9.2026 16:30 4.225.000 TL
709 2014 Volkswagen CRAFTER OKUL 16+1 İstanbul 4.9.2026 16:30 1.000 TL
710 2004 Renault MEGANE SEDAN 1.6 Bursa 4.9.2026 16:30 1.000 TL
711 2013 Honda CBF 150 Aydın 4.9.2026 16:30 1.000 TL
712 1998 Mitsubishi L300 PANEL VAN İstanbul 4.9.2026 16:30 1.000 TL
713 2023 Motorsiklet 790 DUKE İstanbul 4.9.2026 16:30 60.000 TL
714 2021 Honda PCX 125 Hatay 4.9.2026 16:30 1.000 TL
715 2023 Bmw CE 04 İstanbul 4.9.2026 16:30 1.500 TL
716 2016 Ford FOCUS TREND X 1.5 TDCI Aksaray 4.9.2026 16:30 1.000 TL
717 2004 Peugeot 206 1.4 Gaziantep 4.9.2026 16:30 1.000 TL
718 2008 Peugeot 308 COMFORT 1.6 VTI (120) 5 KAPI OV Samsun 5.9.2026 16:30 1.000 TL
719 2025 Motorsiklet ARORA DAZZLE 125 Ankara 5.9.2026 16:30 1.000 TL
720 1986 Renault 9 GTE BROADWAY Bursa 5.9.2026 16:30 6.000 TL
721 2016 Motorsiklet BAJAJ DISCOVER 150S Antalya 5.9.2026 16:30 1.000 TL
722 2007 Citroen C4 SX 1.6 HDI (110) İstanbul 5.9.2026 16:30 1.000 TL
723 2023 Motorsiklet HONDA PCX 125 DX Antalya 5.9.2026 16:30 1.000 TL
724 1991 Renault 9 GTE BROADWAY Denizli 5.9.2026 16:30 5.000 TL
725 2001 Citroen SAXO 1.5D Denizli 5.9.2026 16:30 20.000 TL
726 2024 Motorsiklet BAJAJ DOMINAR D 250 İzmir 5.9.2026 16:30 1.000 TL
727 2023 Motorsiklet MONDIAL TOURING 125 MH DRIFT Denizli 5.9.2026 16:30 1.000 TL
728 2016 Motorsiklet YAMAHA MT 09 Manisa 5.9.2026 16:30 1.000 TL
729 2011 Volkswagen TIGUAN 1.4 TSI (150) 4x2 SPORTS&STYLE Erzurum 5.9.2026 16:30 2.000 TL
730 2024 Motorsiklet REVOLT RSX4 125 Sivas 5.9.2026 16:30 1.000 TL
731 1998 Fiat/Tofaş TIPO 1.4 i.e. SX Düzce 5.9.2026 16:30 1.000 TL
732 2010 Renault FLUENCE EXPRESSION 1.5 DCI (85) İstanbul 5.9.2026 16:30 50.000 TL
733 2006 Opel CORSA GL 1.3I Ankara 5.9.2026 16:30 25.000 TL
734 2018 Motorsiklet SYM FIDDLE III 125 İstanbul 5.9.2026 16:30 1.000 TL
735 2023 Motorsiklet KTM 250 DUKE ABS İstanbul 5.9.2026 16:30 1.000 TL
736 2025 Fiat/Tofaş DOBLO COMBI 1.3 M.JET 90 PREMIO PLUS Erzincan 5.9.2026 16:30 1.000 TL
737 2024 Motorsiklet KTM 125 DUKE İstanbul 5.9.2026 16:30 1.000 TL
738 2006 Nissan PRIMERA 1.6 TEKNA SEDAN Eskişehir 5.9.2026 16:30 500 TL
739 2000 Fiat/Tofaş PALIO 1.4 EL Erzurum 5.9.2026 16:30 25.000 TL
740 2025 Motorsiklet YAMAHA R25 ABS İzmir 5.9.2026 16:30 1.000 TL
741 2007 Renault MEGANE II SEDAN EXPRESSION 1.5 DCI Bilecik 5.9.2026 16:30 1.000 TL
742 2016 Toyota VERSO 1.6 D-4D ADVANCE Samsun 5.9.2026 16:30 1.000 TL
743 2017 Fiat/Tofaş DOBLO COMBI 1.6 M.JET İstanbul 7.9.2026 15:15 255.500 TL
744 2025 Toyota COROLLA 1.5 SEDAN Muğla 7.9.2026 15:15 50.000 TL
745 2016 Audi A3 SPORTBACK 1.0 TFSI DYNAMIC İstanbul 7.9.2026 15:15 300.000 TL
746 2021 Renault CLIO 1.0 TCE Bursa 7.9.2026 15:15 1.000 TL
747 2018 Lada 4x4 2 KAPI URBAN 1.7 İzmir 7.9.2026 15:15 1.000 TL
748 2023 Opel CORSA 1.2 Ankara 7.9.2026 15:15 1.000 TL
749 2019 Toyota COROLLA 1.8 HYBRID Ankara 7.9.2026 15:15 1.000 TL
750 2014 Mercedes GL 350 BLUETEC Erzurum 7.9.2026 15:15 1.000 TL
751 2021 Mitsubishi L200 CIFT KABIN KAMYONET Konya 7.9.2026 15:15 1.000 TL
752 2014 Fiat/Tofaş DOBLO COMBI 1.3 M.JET Uşak 7.9.2026 15:15 1.000 TL
753 2012 Citroen BERLINGO COMBI 1.6 HDI Erzincan 7.9.2026 15:15 1.000 TL
754 2013 Dacia SANDERO STEPWAY 1.5 DCI İstanbul 7.9.2026 15:15 1.000 TL
755 2015 Ford TOURNEO COURIER KOMBI 1.6 TDCI Ankara 7.9.2026 15:15 1.000 TL
756 2023 Citroen C4 X 1.2 PURETECH Adana 7.9.2026 15:15 1.000 TL
757 2011 Alfa Romeo GIULIETTA 1.6 JTD 105 DISTINCTIVE Muğla 7.9.2026 15:30 1.000 TL
758 2009 Honda CIVIC SEDAN 1.6 ELEGANCE OV (Y) İzmir 7.9.2026 15:30 1.000 TL
759 2025 Togg T10X Şanlıurfa 7.9.2026 15:30 1.000 TL
760 2022 Renault CLIO JOY 1.0 SCE İzmir 7.9.2026 15:30 1.000 TL
761 2006 Toyota COROLLA 1.6 TERRA Ankara 7.9.2026 15:30 1.000 TL
762 2015 Honda CBF 150 SH İstanbul 7.9.2026 15:30 1.000 TL
763 2025 Motorsiklet 450 SR İstanbul 7.9.2026 15:30 1.000 TL
764 2000 Bmw 520 İA Çorum 7.9.2026 15:30 1.000 TL
765 2017 Fiat/Tofaş FIORINO COMBI 1.3 M.JET Osmaniye 7.9.2026 15:30 1.000 TL
766 2023 Motorsiklet 125 DRİFT L Adana 7.9.2026 15:30 1.000 TL
767 2017 Motorsiklet YZF R25 Şehir Seç 7.9.2026 15:30 1.000 TL
768 2023 Motorsiklet NR 200 Hatay 7.9.2026 15:30 1.000 TL
769 2025 Honda CB 125 F Antalya 7.9.2026 15:30 1.000 TL
770 2025 Motorsiklet R25 Aydın 7.9.2026 15:30 1.000 TL
771 2012 Ford TRANSIT KAMYONET Denizli 7.9.2026 15:30 1.000 TL
772 2017 Opel ASTRA NB 1.6 Rize 7.9.2026 15:30 1.000 TL
773 2026 Motorsiklet NEWCITY 50 Şehir Seç 7.9.2026 15:30 1.000 TL
774 2022 Motorsiklet 125 DRIFT L Tekirdağ 7.9.2026 15:30 1.000 TL
775 2015 Volkswagen CRAFTER OKUL 16+1 Şehir Seç 7.9.2026 15:30 1.000 TL
776 2025 Renault CLIO 1.0 TCE X-TRONIC 90 Elazığ 7.9.2026 15:30 1.000 TL
777 2022 Fiat/Tofaş DOBLO CARGO MAXI 1.6 M.JET Tekirdağ 7.9.2026 15:30 1.000 TL
778 2014 Volkswagen PASSAT 1.6 TDI 105 BMT TIPT. Malatya 7.9.2026 15:30 1.000 TL
779 2016 Renault MASTER 16+1 Konya 7.9.2026 15:30 1.000 TL
780 1989 Renault R 12 TSW Uşak 7.9.2026 15:30 1.000 TL
781 2011 Opel CORSA 1.2i TWINPORT İzmir 7.9.2026 15:30 1.000 TL
782 1998 Toyota COROLLA 1.6 Kayseri 7.9.2026 15:30 1.000 TL
783 2016 Opel ASTRA NB 1.6 Kütahya 7.9.2026 15:30 1.000 TL
784 2021 Peugeot 208 1.2 PURETECH 100 Bursa 7.9.2026 15:30 1.000 TL
785 2017 Fiat/Tofaş EGEA SEDAN 1.3 M.JET İstanbul 7.9.2026 15:30 1.000 TL
786 2025 Toyota C-HR 1.8 HYBRID İstanbul 7.9.2026 15:30 1.000 TL
787 2026 Motorsiklet MOJITO 50 İstanbul 7.9.2026 15:30 1.000 TL
788 2015 Motorsiklet M 7040 Kocaeli 7.9.2026 15:30 1.000 TL
789 2023 Motorsiklet DOMINAR D 400 Şehir Seç 7.9.2026 15:30 1.000 TL
790 2023 Dorse/Römork HASTRAİLLER FCC YARI RÖMORK Hatay 7.9.2026 15:30 1.000 TL
791 2007 Dorse/Römork SDP 27 YARI RÖMORK Antalya 7.9.2026 15:30 1.000 TL
792 2024 Motorsiklet CG 50 Batman 7.9.2026 15:30 1.000 TL
793 2001 Ford FOCUS 1.6i GHIA SEDAN İzmir 7.9.2026 15:30 1.000 TL
794 2025 Motorsiklet QUANTUM 50 Ankara 7.9.2026 15:30 1.000 TL
795 2011 Peugeot PARTNER TEPEE COMFORT 1.6 HDI Batman 7.9.2026 15:30 1.000 TL
796 2024 Renault DUSTER 1.2 HYBRID Diyarbakır 7.9.2026 15:30 1.000 TL
797 2021 Motorsiklet X MAX 250 İzmir 7.9.2026 15:30 1.000 TL
798 2021 Fiat/Tofaş DOBLO COMBI 1.6 M.JET Konya 7.9.2026 15:30 1.000 TL
799 2012 Renault FLUENCE 1.5 DCI Ankara 7.9.2026 15:30 1.000 TL
800 1995 Fiat/Tofaş DOGAN SLX 1.6 Aydın 7.9.2026 15:30 1.000 TL
801 2012 Citroen DS4 1.6 EHDI Balıkesir 7.9.2026 15:30 1.000 TL
802 2004 Ford MONDEO 2.0 TDCI SEDAN İstanbul 7.9.2026 15:30 1.000 TL
803 2022 Honda PCX 125 Sakarya 7.9.2026 15:30 1.000 TL
804 2013 Renault SYMBOL 1.5 DCI İstanbul 7.9.2026 15:30 1.000 TL
805 2016 Peugeot 3008 1.6 BLUEHDI Ankara 7.9.2026 15:30 1.000 TL
806 2016 Nissan MICRA 1.2 STREET İzmir 7.9.2026 15:30 1.000 TL
807 2025 Renault MEGANE SEDAN 1.3 TCE Malatya 7.9.2026 15:30 1.000 TL
808 2020 Peugeot 2008 1.5 BLUEHDI İstanbul 7.9.2026 15:30 1.000 TL
809 1999 Toyota COROLLA 1.3 BASE Ankara 7.9.2026 15:30 1.000 TL
810 2007 Ford T. CONNECT 1,8 TDCİ Malatya 7.9.2026 15:30 1.000 TL
811 2025 Motorsiklet SFM IHLARA SF 400 Denizli 7.9.2026 15:30 1.000 TL
812 2014 Renault SYMBOL 1,2 Manisa 7.9.2026 15:30 1.000 TL
813 1995 Renault R12 TOROS Antalya 7.9.2026 15:30 1.000 TL
814 2023 Motorsiklet DOMINAR D 400 Bursa 7.9.2026 15:30 1.000 TL
815 2021 Motorsiklet RM5 X Manisa 7.9.2026 15:30 1.000 TL
816 2009 Bmw 116i HB Muğla 7.9.2026 15:30 1.000 TL
817 2017 Dacia SANDERO 1.5 DCI 90 Manisa 7.9.2026 15:30 1.000 TL
818 2021 Renault EXPRESS VAN JOY 1.5 BLUEDCI 95 İstanbul 7.9.2026 15:30 1.000 TL
819 2018 Volkswagen CADDY 2.0 TDI SCR BMT 102 Diyarbakır 7.9.2026 15:30 1.000 TL
820 2023 Honda PCX 125 Şehir Seç 7.9.2026 15:30 1.000 TL
821 2006 Honda CITY 1.4 COMFORT İstanbul 7.9.2026 15:30 1.000 TL
822 2021 Fiat/Tofaş EGEA CROSS 1.4 FIRE Kahramanmaraş 7.9.2026 15:30 1.000 TL
823 2023 Ford CEKICI F-MAX Aksaray 7.9.2026 15:30 1.000 TL
824 2024 Ford CEKICI F-MAX Hatay 7.9.2026 15:30 1.000 TL
825 2006 Suzuki JIMNY 1.3 JLX Şehir Seç 7.9.2026 15:30 1.000 TL
826 2020 Dacia DUSTER COMFORT 1.5 BLUEDCI Malatya 7.9.2026 15:30 1.000 TL
827 2024 Renault CLIO 1.0 TCE Bursa 7.9.2026 15:30 1.000 TL
828 2013 Dacia DUSTER 1.5 DCI Muğla 7.9.2026 15:30 1.000 TL
829 2025 Renault CLIO 1.0 TCE İstanbul 7.9.2026 15:30 1.000 TL
830 2023 Volkswagen POLO 1.0 Bursa 7.9.2026 15:30 1.000 TL
831 2022 Opel COMBO 1.5 DIZEL Trabzon 7.9.2026 15:30 1.000 TL
832 2024 Fiat/Tofaş DOBLO COMBI 1.5 BLUEHDI İstanbul 7.9.2026 15:30 1.000 TL
833 2002 Renault MEGANE 1.6 RXI Ankara 7.9.2026 15:30 1.000 TL
834 2025 Citroen C4 X 1,2 PURETECH Hatay 7.9.2026 15:30 1.000 TL
835 2025 Citroen C4 X 1.2 PURETECH 130 Konya 7.9.2026 15:30 1.000 TL
836 2025 Citroen C4 X 1,2 PURETECH Samsun 7.9.2026 15:30 1.000 TL
837 2026 Renault CLIO 1.0 TCE Trabzon 7.9.2026 15:30 1.000 TL
838 2026 Renault CLIO 1.0 TCE X-TRONIC 90 Samsun 7.9.2026 15:30 1.000 TL
839 2025 Citroen C4 X YOU 1.2 PureTech Antalya 7.9.2026 15:30 1.000 TL
840 1993 Fiat/Tofaş DOĞAN SLX 1.6 Manisa 7.9.2026 15:30 1.000 TL
841 1997 Renault R19 EUROPA 1.6 RT Kocaeli 7.9.2026 15:30 1.000 TL
842 2026 Renault MEGANE SEDAN 1.3 TCE Kayseri 7.9.2026 15:30 1.000 TL
843 2023 Fiat/Tofaş EGEA 1.4 SEDAN Gaziantep 7.9.2026 15:30 1.000 TL
844 2020 Fiat/Tofaş DOBLO CARGO MAXI 1.3 M.JET Bursa 7.9.2026 15:30 1.000 TL
845 2008 Honda ACCORD 2.0 EXECUTIVE OV Kocaeli 7.9.2026 15:30 1.000 TL
846 2022 Mini COUNTRYMAN 1.5 Ankara 7.9.2026 15:30 1.000 TL
847 2024 Skoda KAMIQ 1.0 TSI İstanbul 7.9.2026 15:30 1.000 TL
848 2010 Honda NT 700VA İzmir 7.9.2026 15:30 1.000 TL
849 2014 Motorsiklet ZS Kocaeli 7.9.2026 15:30 1.000 TL
850 2007 Skoda FABIA AMBIENTE 1.4 Ankara 7.9.2026 15:30 1.000 TL
851 1996 Fiat/Tofaş DOĞAN SLX Şehir Seç 7.9.2026 15:30 1.000 TL
852 2024 Motorsiklet MAX PRO 125 Çanakkale 7.9.2026 15:30 1.000 TL
853 2008 Hyundai ACCENT ERA 1.4 TEAM İstanbul 7.9.2026 15:30 1.000 TL
854 2024 Motorsiklet RAYZR 125 Düzce 7.9.2026 15:30 1.000 TL
855 2000 Volkswagen POLO 1.6 CLASSIC Eskişehir 7.9.2026 15:30 1.000 TL
856 2023 Volkswagen TIGUAN 1.5 TSI Ankara 7.9.2026 15:30 1.000 TL
857 2015 Bmw BMW R 1200 GS Ankara 7.9.2026 15:30 1.000 TL
858 2016 Volkswagen GOLF 1.2 TSI Eskişehir 7.9.2026 15:30 1.000 TL
859 2020 Hyundai KONA 1.6 CRDI Erzurum 7.9.2026 15:30 1.000 TL
860 2016 Ford FOCUS 1,5 TDCİ Ankara 7.9.2026 15:30 1.000 TL
861 2024 Ford FOCUS 1.5 EcoBlue Trabzon 7.9.2026 15:30 1.000 TL
862 2018 Hyundai TUCSON 1.6 CRDI ELITE PLUS Ankara 7.9.2026 15:30 1.000 TL
863 2024 Motorsiklet RKS M250 Konya 7.9.2026 15:30 1.000 TL
864 2023 Motorsiklet PESARO 125 X Şanlıurfa 7.9.2026 15:30 1.000 TL
865 2005 Toyota YARIS 1.3 SOL Ankara 7.9.2026 15:30 1.000 TL
866 2000 Renault SCENIC 1.6 RXE İzmir 7.9.2026 15:30 1.000 TL
867 2024 Kgmobılıty TORRES EVX Ankara 7.9.2026 15:30 1.000 TL
868 1998 Fiat/Tofaş TIPO 1.4 Bingöl 7.9.2026 15:30 1.000 TL
869 2005 Renault MEGANE II SEDAN 1.5 DCI Antalya 7.9.2026 15:30 1.000 TL
870 2026 Chery TİGGO 7 1.6 T-GDI Hatay 7.9.2026 15:30 1.000 TL
871 2006 Hyundai STAREX 2.5 CRDI İstanbul 7.9.2026 15:30 1.000 TL
872 2004 Hyundai ELANTRA 1.6 Samsun 7.9.2026 15:30 1.000 TL
873 2005 Ford CARGO 2524 (6x2) DS Bursa 7.9.2026 15:30 1.000 TL
874 2020 Ford F-MAX Ankara 7.9.2026 15:30 1.000 TL
875 2018 Honda CIVIC SEDAN 1.6 Bursa 7.9.2026 15:30 1.000 TL
876 1992 Fiat/Tofaş TEMPRA SX AK Ankara 7.9.2026 15:30 1.000 TL
877 1994 Bmw 520I SEDAN Kayseri 7.9.2026 15:30 1.000 TL
878 2017 Dacia DOKKER COMBI AMBIANCE 1.5 DCI Adana 7.9.2026 15:30 1.000 TL
879 2025 Dacia SANDERO 1.0 Muğla 7.9.2026 15:30 1.000 TL
880 2024 Motorsiklet 250 SR İstanbul 7.9.2026 15:30 1.000 TL
881 2020 Motorsiklet X-MAX 250 Antalya 7.9.2026 15:30 1.000 TL
882 2023 Renault CLIO 1.0 TCE X-TRONIC 90 Ankara 7.9.2026 15:30 1.000 TL
883 2023 Honda CBF 250 NA Samsun 7.9.2026 15:30 1.000 TL
884 2023 Iveco DAILY KAMYONET 35 C 16 Diyarbakır 7.9.2026 15:30 1.000 TL
885 2024 Motorsiklet AR 50 Denizli 7.9.2026 15:30 1.000 TL
886 2023 Motorsiklet AZURE GST50QT-5 Antalya 7.9.2026 15:30 1.000 TL
887 2021 Honda DIO 110 Afyonkarahisar 7.9.2026 15:30 1.000 TL
888 2018 Lexus ES 300H Bursa 7.9.2026 15:30 1.000 TL
889 2023 Motorsiklet EGE 50 Mersin 7.9.2026 15:30 1.000 TL
890 2023 Renault EXPRESS COMB 1.5 BLUEDCI Konya 7.9.2026 15:30 1.000 TL
891 2010 Dacia LOGAN MCV 1.5 DCİ AMBİANCE Kocaeli 7.9.2026 15:30 1.000 TL
892 2005 Toyota COROLLA 1.6 Edirne 7.9.2026 15:30 1.000 TL
893 2010 Ford FOCUS 1,6 TDCİ TITANIUM Antalya 7.9.2026 15:30 1.000 TL
894 2024 Peugeot 2008 1.2 Ankara 7.9.2026 15:30 1.000 TL
895 2023 Ford TOURNEO COURIER KOMBI 1.5 TDCI Şırnak 7.9.2026 15:30 1.000 TL
896 1990 Fiat/Tofaş KARTAL 1.6 Muğla 7.9.2026 15:30 1.000 TL
897 1991 Renault R1339 Mersin 7.9.2026 15:30 1.000 TL
898 2013 Volkswagen POLO 1.2 TDI TRENDLINE Mardin 7.9.2026 15:30 1.000 TL
899 2024 Ford TRANSIT COURIER VAN 1.5 D Ankara 7.9.2026 15:30 1.000 TL
900 2024 Motorsiklet 125 DRIFT L Antalya 7.9.2026 15:30 1.000 TL
901 2016 Hyundai TUCSON 1.6 T-GDI Samsun 7.9.2026 15:30 1.000 TL
902 2014 Hyundai i20 1.4 Şehir Seç 7.9.2026 15:30 1.000 TL
903 2021 Dacia SANDERO 1,0 TCE Diyarbakır 7.9.2026 15:30 1.000 TL
904 2015 Renault MASTER 2,3 DCİ Konya 7.9.2026 15:30 1.000 TL
905 2015 Ford FOCUS 1,5 TDCİ Ankara 7.9.2026 15:30 1.000 TL
906 1998 Renault 19 EUROPA 1.6 Şehir Seç 7.9.2026 15:30 1.000 TL
907 2022 Volkswagen CADDY 2.0 TDI Eskişehir 7.9.2026 15:30 1.000 TL
908 2022 Motorsiklet 250 NK İstanbul 7.9.2026 15:30 1.000 TL
909 2004 Peugeot 307 XR 1.4 HDI Adana 7.9.2026 15:30 1.000 TL
910 2015 Kia SPORTAGE 1.6 Aydın 7.9.2026 15:30 1.000 TL
911 2013 Opel CORSA 1.3 CDTİ Adana 7.9.2026 15:30 1.000 TL
912 2012 Hyundai ix351.6 GDI 6MT 4x2 STYLE PLUS Tekirdağ 7.9.2026 15:30 1.000 TL
913 2004 Opel CORSA 1.2 ESSENTIA Şehir Seç 7.9.2026 15:30 1.000 TL
914 1995 Fiat/Tofaş ŞAHİN 1.6 Ankara 7.9.2026 15:30 1.000 TL
915 2026 Bmw 520İ Kayseri 7.9.2026 15:30 1.000 TL
916 2025 Renault MEGANE SEDAN 1.3 TCE İzmir 7.9.2026 15:30 1.000 TL
917 2026 Fiat/Tofaş EGEA 1,6 MULTİJET Edirne 7.9.2026 15:30 1.000 TL
918 2011 Renault SYMBOL AUTHENTIQUE 1.5 DCI Şehir Seç 7.9.2026 15:30 1.000 TL
919 2024 Motorsiklet QUANTUM 50 İzmir 7.9.2026 15:30 1.000 TL
920 2016 Fiat/Tofaş DOBLO COMBI 1.6 M.JET Ankara 7.9.2026 15:30 1.000 TL
921 2024 Motorsiklet RT3 125 Malatya 7.9.2026 15:30 1.000 TL
922 2023 Citroen AMI Ankara 7.9.2026 15:30 1.000 TL
923 2022 Motorsiklet SPONTINI 110 (GST110T-14) İzmir 7.9.2026 15:30 1.000 TL
924 2004 Hyundai GETZ 1.3 GLS OV Ankara 7.9.2026 15:30 1.000 TL
925 2007 Toyota YARIS 1.0 TERRA Elazığ 7.9.2026 15:30 1.000 TL
926 1999 Toyota AVENSIS 2.0 SEDAN Karabük 7.9.2026 15:30 1.000 TL
927 2025 Hyundai i20 1.0 T-GDI Kahramanmaraş 7.9.2026 15:30 1.000 TL
928 2022 Renault CLIO JOY 1.0 Kocaeli 7.9.2026 15:30 1.000 TL
929 2015 Dacia SANDERO 1.5 DCI Uşak 7.9.2026 15:30 1.000 TL
930 2023 Tesla MODEL Y Ankara 7.9.2026 15:30 1.000 TL
931 2006 Ford FIESTA 1.4 COMFORT Sakarya 7.9.2026 15:30 1.000 TL
932 2017 Volkswagen POLO 1.4 TDI Manisa 7.9.2026 15:30 1.000 TL
933 2013 Dacia LODGY 1.5 DCI Şehir Seç 7.9.2026 15:30 1.000 TL
934 2012 Renault SYMBOL 1.5 DCI İstanbul 7.9.2026 15:30 1.000 TL
935 2014 Volkswagen JETTA 1.6 TDI Adana 7.9.2026 15:30 1.000 TL
936 2006 Renault CLIO ALIZE Kütahya 7.9.2026 15:30 1.000 TL
937 1999 Ford FOCUS 1.6 SEDAN Uşak 7.9.2026 15:30 1.000 TL
938 1994 Fiat/Tofaş KARTAL 1.6 Şehir Seç 7.9.2026 15:30 1.000 TL
939 2023 Peugeot 2008 1.2 PURETECH Denizli 7.9.2026 15:30 1.000 TL
940 1992 Fiat/Tofaş ŞAHİN 1.6 Şehir Seç 7.9.2026 15:30 1.000 TL
941 2026 Motorsiklet FR177 Kastamonu 7.9.2026 15:30 1.000 TL
942 2005 Nissan ALMERA 1.5 Muğla 7.9.2026 15:30 1.000 TL
943 2020 Dacia DOKKER VAN 1.5 BLUEDCI Şehir Seç 7.9.2026 15:30 1.000 TL
944 2015 Skoda OCTAVIA 1.6 TDI Bingöl 7.9.2026 15:30 1.000 TL
945 2026 Fiat/Tofaş EGEA 1.6 M.JET Konya 7.9.2026 15:30 1.000 TL
946 1998 Toyota HILUX Kahramanmaraş 7.9.2026 15:30 1.000 TL
947 2021 Renault ZOE Kocaeli 7.9.2026 15:30 1.000 TL
948 1991 Nissan LAUREL ALTIMA 2.0 Şehir Seç 7.9.2026 15:30 1.000 TL
949 2010 Motorsiklet Salcano WOLF 125 Antalya 7.9.2026 15:30 TL
950 1998 Ford ESCORT 1.6i CL SEDAN Şehir Seç 7.9.2026 15:30 1.000 TL
951 1998 Volkswagen POLO 1.6 CLASSIC (ESKİ KASA) Aydın 7.9.2026 15:30 1.000 TL
952 2024 Motorsiklet 250 NK Malatya 7.9.2026 15:30 1.000 TL
953 2023 Motorsiklet MATI 125 Antalya 7.9.2026 15:30 1.000 TL
954 2015 Nissan MİCRA 1.2 STREET Muğla 7.9.2026 15:30 1.000 TL
955 2021 Opel COMBO 1.5 D 130 Antalya 7.9.2026 15:30 1.000 TL
956 2019 Dorse/Römork KRONE SD TENTELİ Gaziantep 7.9.2026 15:30 1.000 TL
957 2024 Motorsiklet VERANO 50 Eskişehir 7.9.2026 15:30 1.000 TL
958 2004 Renault MEGANE II SEDAN DYNAMIC 1.6 16V Ankara 7.9.2026 15:30 1.000 TL
959 2022 Renault EXPRESS COMBI JOY 1.5 BLUEDCI Samsun 7.9.2026 15:30 1.000 TL
960 2015 Motorsiklet JOYMAX 250i Tokat 7.9.2026 15:30 1.000 TL
961 2020 Motorsiklet MT 25 Çanakkale 7.9.2026 15:30 1.000 TL
962 2016 Ford TRANSIT CUSTOM VAN İstanbul 7.9.2026 15:30 1.000 TL
963 2026 Honda FORZA 250 NSS250A İstanbul 7.9.2026 15:30 1.000 TL
964 2023 Motorsiklet 125 DRIFT L İzmir 7.9.2026 15:30 1.000 TL
965 2020 Honda CRF1100 AFRICA TWIN ADVNTURESPORTSES DCT Muğla 7.9.2026 15:30 1.000 TL
966 2017 Ford TRANSİT 350M KAMYONET İstanbul 7.9.2026 15:30 1.000 TL
967 2023 Motorsiklet 250 NK Antalya 7.9.2026 15:30 1.000 TL
968 2015 Hyundai i30 1.6 CRDI ELITE İzmir 7.9.2026 15:30 1.000 TL
969 2014 Fiat/Tofaş DOBLO 1.3 M.JET Şehir Seç 7.9.2026 15:30 1.000 TL
970 2024 Hyundai IONIQ 6 İstanbul 7.9.2026 15:30 1.000 TL
971 1987 Renault BROADWAY 1.4 Balıkesir 7.9.2026 15:30 1.000 TL
972 2024 Motorsiklet JUPITER 125 Şehir Seç 7.9.2026 15:30 1.000 TL
973 2010 Honda CIVIC 1.6 DREAM Bursa 7.9.2026 15:30 1.000 TL
974 2024 Chery TIGGO 8 PRO MAX 1.6 T-GDI İstanbul 7.9.2026 15:30 1.000 TL
975 2014 Motorsiklet ZONE S Tokat 7.9.2026 15:30 1.000 TL
976 2005 Citroen C3 1.4İ 16V HDI SX Şehir Seç 7.9.2026 15:30 1.000 TL
977 2010 Ford RANGER CIFT KABIN K.NET 4x2 Muğla 7.9.2026 15:30 1.000 TL
978 2004 Renault MEGANE 1.6 Sivas 7.9.2026 15:30 1.000 TL
979 2017 Seat LEON ST 1.6 TDI 115 DSG Batman 7.9.2026 15:30 1.000 TL
980 2021 Renault MEGANE 1,3 TCE Erzurum 7.9.2026 15:30 1.000 TL
981 2021 Renault CLIO 1,0 TCE Sivas 7.9.2026 15:30 1.000 TL
982 2018 Skoda OCTAVIA 1.6 TDI Ordu 7.9.2026 15:30 1.000 TL
983 2016 Ford TRANSIT MİNÜBÜS Malatya 7.9.2026 15:30 1.000 TL
984 2013 Volkswagen TRANSPORTER 2,0 TDI Elazığ 7.9.2026 15:30 1.000 TL
985 2021 Toyota COROLLA 1.8 HYBRID Diyarbakır 7.9.2026 15:30 1.000 TL
986 2016 Bmw 320i ED SEDAN 1.6 İstanbul 7.9.2026 15:30 1.000 TL
987 2019 Fiat/Tofaş EGEA SEDAN 1.3 M.JET Çorum 7.9.2026 15:30 1.000 TL
988 2014 Opel ASTRA HB 1.6 İstanbul 7.9.2026 15:30 1.000 TL
989 2023 Motorsiklet ÇITA 50 R GOLD Malatya 7.9.2026 15:30 1.000 TL
990 2015 Mercedes CEKICI AXOR 1840 LS E5 Adana 7.9.2026 15:30 1.000 TL
991 2006 Ford KAMYON CARGO 2524 (6x2) Muğla 7.9.2026 15:30 1.000 TL
992 2025 Motorsiklet NEWCITY 50 İstanbul 7.9.2026 15:30 1.000 TL
993 2019 Fiat/Tofaş EGEA SEDAN 1.3 M.JET 95 Van 7.9.2026 15:30 1.000 TL
994 2024 Motorsiklet AZURE GST50QT-5 Şehir Seç 7.9.2026 15:30 1.000 TL
995 2014 Mercedes SPRINTER 416 CDI OTOBUS 19+1 Ankara 7.9.2026 15:30 1.000 TL
996 2001 Fiat/Tofaş MAREA 1.6 ELX Kayseri 7.9.2026 15:30 1.000 TL
997 1992 Fiat/Tofaş DOĞAN 1.6 Balıkesir 7.9.2026 15:30 1.000 TL
998 2012 Ford T. CONNECT KOMBI 1.8 TDCi Siirt 7.9.2026 15:30 1.000 TL
999 1995 Fiat/Tofaş UNO SX Gaziantep 7.9.2026 15:30 1.000 TL
1000 2024 Motorsiklet 250 SR Antalya 7.9.2026 15:30 1.000 TL
1001 1998 Hyundai ACCENT 1.3 Isparta 7.9.2026 16:30 31.000 TL
1002 2018 Skoda FABIA 1.0 TSI Aydın 7.9.2026 16:30 650.000 TL
1003 2026 Dorse/Römork DAMPERLİ YARI RÖMORK Mersin 7.9.2026 16:30 300.000 TL
1004 2018 Peugeot 301 1.6 BLUEHDI Kayseri 7.9.2026 16:30 100.000 TL
1005 2002 Audi A4 2.0 Sakarya 7.9.2026 16:30 1.000 TL
1006 1992 Renault R9 BRODWAY 1,4 Uşak 7.9.2026 16:30 1.000 TL
1007 2011 Dacia LOGAN MCV AMBIANCE 1.5 DCI Afyonkarahisar 7.9.2026 16:30 1.000 TL
1008 1995 Fiat/Tofaş DOGAN S Afyonkarahisar 7.9.2026 16:30 1.000 TL
1009 1995 Fiat/Tofaş KARTAL 1,6 Trabzon 7.9.2026 16:30 1.000 TL
1010 2023 Iveco S-WAY AS440ST/P Hatay 7.9.2026 16:30 500 TL
1011 2022 Fiat/Tofaş EGEA 1,3 MULTİJET İstanbul 7.9.2026 16:30 1.000 TL
1012 2013 Renault MEGANE 1,5 DCİ Antalya 7.9.2026 16:30 1.000 TL
1013 2012 Fiat/Tofaş DOBLO CARGO 1,3 MULTIJET Kırıkkale 7.9.2026 16:30 1.000 TL
1014 2011 Audi A8 4.2 TDI QUATTRO İzmir 7.9.2026 16:30 51.000 TL
1015 2014 Fiat/Tofaş LINEA 1,3 MULTİJET Bursa 7.9.2026 16:30 5.000 TL
1016 2012 Renault KANGOO EXPRESS MAXI 1.5 DCI İzmir 7.9.2026 16:30 1.000 TL
1017 2023 Motorsiklet BLUEBIRD 50 Aydın 7.9.2026 16:30 1.000 TL
1018 2020 Renault MEGANE 1,5 BLUEDCİ İstanbul 7.9.2026 16:30 400.000 TL
1019 2012 Mercedes AXOR 1840 LS E5 Antalya 7.9.2026 16:30 1.000 TL
1020 2021 Bmw 320i SEDAN 1.6 170 SPORT LINE Ankara 7.9.2026 16:30 25.000 TL
1021 2016 Volkswagen TIGUAN 1.4 TSI ACT BMT 150 DSG COMFORTLINE İstanbul 7.9.2026 16:30 401.000 TL
1022 2016 Skoda FABIA 1.2 TSI 110 DSG GREEN TEC STYLE İstanbul 7.9.2026 16:30 1.000 TL
1023 2025 Opel COMBO EDITION 1.5 DIZEL AT8 130 FL Ankara 7.9.2026 16:30 1.000 TL
1024 2021 Citroen C4 SHINE BOLD 1.2 PURETECH 155 EAT8 E6.3 Ankara 7.9.2026 16:30 500 TL
1025 2021 Citroen C5AIRCROSS SHINEBOLD 1.5 BLUEHDI 130 S&S EAT8 İstanbul 7.9.2026 16:30 750.000 TL
1026 2025 Renault CLIO EVOLUTION 1.0 TCE X-TRONIC 90 İstanbul 7.9.2026 16:30 515.000 TL
1027 2021 Ford TOURNEO COURIER JOURNEY 1.5 TDCI 100 E6.2 TIT İstanbul 7.9.2026 16:30 100.000 TL
1028 2022 Renault TALIANT JOY 1.0 SCE 65 Ankara 7.9.2026 16:30 55.000 TL
1029 2024 Skoda KAMIQ 1.0 TSI 115 DSG ELITE FL İstanbul 7.9.2026 16:30 605.000 TL
1030 2007 Ford TRANSIT 350 M KAMYONET Giresun 7.9.2026 16:30 125.000 TL
1031 2025 Scania S560 DYNAMIC Samsun 7.9.2026 16:30 1.450.000 TL
1032 2012 Ford CARGO 1838T 4X2 Mardin 7.9.2026 16:30 500 TL
1033 2025 Motorsiklet RKS SRK 125 - R Nevşehir 7.9.2026 16:30 500 TL
1034 2011 Hyundai GETZ 1.5 CRDI VGT İstanbul 7.9.2026 16:30 1.500 TL
1035 2011 Ford TRANSIT 350 L MINIBUS Ankara 7.9.2026 16:30 1.000 TL
1036 2019 Audi A8 L 3.0 TDI 286 QUATTRO İstanbul 7.9.2026 16:30 1.200.000 TL
1037 2025 Audi A6 SEDAN 40 TDI QUATTRO S LINE 204 S TRONIC İstanbul 7.9.2026 16:30 1.500 TL
1038 2008 Audi A6 2.0 TDI MULTIRONIC Sakarya 7.9.2026 16:30 1.000 TL
1039 2006 Motorsiklet KANUNI 150 TREX Ankara 7.9.2026 16:30 500 TL
1040 2025 Ford TRANSIT 350 ED VAN Muğla 7.9.2026 16:30 1.000 TL
1041 2012 Fiat/Tofaş ALBEA SOLE 1.3 MULTIJET Yalova 7.9.2026 16:30 500 TL
1042 2025 Motorsiklet FALCON CMAX-155 İzmir 7.9.2026 16:30 500 TL
1043 2022 Motorsiklet RKS TNT202 İstanbul 7.9.2026 16:30 500 TL
1044 2024 Ssangyong MUSSO GRAND D2. 2 4X2 AT PLATINUM PLUS Trabzon 7.9.2026 16:30 1.000 TL
1045 2012 Ford FIESTA TITANIUM 5K 1.4I OV İstanbul 7.9.2026 16:30 500 TL
1046 1993 Fiat/Tofaş SAHIN 5 VITES Amasya 7.9.2026 16:30 500 TL
1047 2019 Renault SYMBOL JOY 0.9 TCE İstanbul 7.9.2026 16:30 500 TL
1048 2009 Bmc LEVENT 100 CIFT SIRALI KAMYONET CSK İzmir 7.9.2026 16:30 500 TL
1049 2001 Hyundai ACCENT 1.3 LX (Y) Edirne 7.9.2026 16:30 500 TL
1050 2016 Motorsiklet MONDIAL SNAPPYX 100 Erzincan 7.9.2026 16:30 500 TL
1051 2010 Geely CK ECHO 1.3 Erzurum 7.9.2026 16:30 1.000 TL
1052 2006 Ford FUSION 1.4İ TDCİ COMFORT İzmir 7.9.2026 16:30 500 TL
1053 2012 Peugeot 208 ACTIVE 1.4 HDI Kocaeli 7.9.2026 16:30 1.000 TL
1054 2023 Hyundai IONIQ 6 İstanbul 8.9.2026 15:15 1.310.000 TL
1055 2009 Skoda SUPERB 1.4 TSI İstanbul 8.9.2026 15:15 412.000 TL
1056 2012 Fiat/Tofaş ALBEA SOLE 1.4 Ankara 8.9.2026 15:15 69.500 TL
1057 2025 Motorsiklet BOSS 50 İstanbul 8.9.2026 15:30 1.000 TL
1058 2013 Renault CLIO HB TOUCH 1.5 DCI Ankara 8.9.2026 15:30 1.000 TL
1059 2024 Motorsiklet 250 NK Çanakkale 8.9.2026 15:30 1.000 TL
1060 2017 Renault MEGANE 1,6 Tekirdağ 8.9.2026 15:30 1.000 TL
1061 2001 Opel ASTRA 1.6i Şehir Seç 8.9.2026 15:30 1.000 TL
1062 2021 Fiat/Tofaş EGEA CROSS 1.4 FIRE Iğdır 8.9.2026 15:30 1.000 TL
1063 2024 Motorsiklet KRV 200 Ankara 8.9.2026 15:30 1.000 TL
1064 2018 Renault MASTER 16+1 SERVIS ELEGANCE Kocaeli 8.9.2026 15:30 1.000 TL
1065 1997 Ford MONDEO 2.0i GHIA Denizli 8.9.2026 15:30 1.000 TL
1066 1994 Fiat/Tofaş ŞAHİN 1.6 Şehir Seç 8.9.2026 15:30 1.000 TL
1067 2011 Ford FOCUS 1.6i HB Manisa 8.9.2026 15:30 1.000 TL
1068 2013 Citroen C-ELYSEE 1.6 HDI 92 Denizli 8.9.2026 15:30 1.000 TL
1069 2019 Fiat/Tofaş DOBLO CARGO MAXI 1.3 M.JET Bursa 8.9.2026 15:30 1.000 TL
1070 2014 Opel CORSA 1.2i TWINPORT Aydın 8.9.2026 15:30 1.000 TL
1071 2024 Motorsiklet 250 NK Tokat 8.9.2026 15:30 1.000 TL
1072 2014 Iveco DAILY KAMYON 70C15 4350 L Antalya 8.9.2026 15:30 1.000 TL
1073 2000 Fiat/Tofaş DOGAN 1.6 İE Trabzon 8.9.2026 15:30 1.000 TL
1074 2020 Renault CLIO 0.9 TCE İstanbul 8.9.2026 15:30 1.000 TL
1075 2022 Renault MEGANE SEDAN 1.3 TCE Ankara 8.9.2026 15:30 1.000 TL
1076 2013 Volkswagen GOLF 1.6 TDI İstanbul 8.9.2026 15:30 1.000 TL
1077 2011 Renault PREMIUM 460.19 T 4x2 Antalya 8.9.2026 15:30 1.000 TL
1078 2025 Kgmobılıty MUSSO GRAND D2.2 4x2 AT Afyonkarahisar 8.9.2026 15:30 1.000 TL
1079 1995 Renault 19 EUROPA 1.6 Şehir Seç 8.9.2026 15:30 1.000 TL
1080 2015 Peugeot 301 1.6 HDI Şehir Seç 8.9.2026 15:30 1.000 TL
1081 1995 Isuzu NPR 595 Kocaeli 8.9.2026 15:30 1.000 TL
1082 1995 Fiat/Tofaş TEMPRA S 1.6 Şehir Seç 8.9.2026 15:30 1.000 TL
1083 1992 Renault L 422 BROADWAY Kayseri 8.9.2026 15:30 1.000 TL
1084 1999 Honda VT 750 C2 SHADOW Şehir Seç 8.9.2026 15:30 1.000 TL
1085 2021 Renault CLIO 1.0 TCE X-TRONIC 90 İzmir 8.9.2026 15:30 1.000 TL
1086 2025 Otokar ATLAS (11T) UZUN SASI 4X2 6 KLIMA İzmir 8.9.2026 15:30 1.000 TL
1087 2022 Kia CEED HB 1.0 120 MHEV DCT Antalya 8.9.2026 15:30 1.000 TL
1088 2023 Renault MEGANE SEDAN 1.3 TCE 140 İzmir 8.9.2026 15:30 1.000 TL
1089 2016 Renault SYMBOL 1.5 DCİ 90 Şanlıurfa 8.9.2026 15:30 1.000 TL
1090 2022 Opel CORSA 1.2 Antalya 8.9.2026 15:30 1.000 TL
1091 2022 Opel CORSA 1.2 Antalya 8.9.2026 15:30 1.000 TL
1092 2024 Motorsiklet RZ250S İstanbul 8.9.2026 15:30 1.000 TL
1093 2000 Renault CLIO 1.6 RXT Bursa 8.9.2026 15:30 1.000 TL
1094 2014 Peugeot 301 1.6 HDI Ankara 8.9.2026 15:30 1.000 TL
1095 2024 Motorsiklet 250 SR Şehir Seç 8.9.2026 15:30 1.000 TL
1096 2012 Renault KANGOO MULTIX AUTHENTIQUE 1.5 DCI (85) Gaziantep 8.9.2026 15:30 1.000 TL
1097 1996 Mercedes E 300 D Şehir Seç 8.9.2026 15:30 1.000 TL
1098 2004 Citroen XSARA 1.4 HDI Eskişehir 8.9.2026 15:30 1.000 TL
1099 2004 Volkswagen POLO 1.4 BASICLINE Ankara 8.9.2026 15:30 1.000 TL
1100 1997 Renault 19 EUROPA 1.4 Muğla 8.9.2026 15:30 1.000 TL
1101 2026 Motorsiklet VSM Afyonkarahisar 8.9.2026 15:30 1.000 TL
1102 1994 Fiat/Tofaş ŞAHİN 1.6 Malatya 8.9.2026 15:30 1.000 TL
1103 2021 Toyota COROLLA 1.5 Antalya 8.9.2026 15:30 1.000 TL
1104 2023 Ford TRANSİT 410L AMBULANS Adıyaman 8.9.2026 15:30 1.000 TL
1105 2004 Opel ASTRA 1.4 NB Zonguldak 8.9.2026 15:30 1.000 TL
1106 2025 Honda DIO 110 İstanbul 8.9.2026 15:30 1.000 TL
1107 1993 Honda CIVIC 1.6 Şehir Seç 8.9.2026 15:30 1.000 TL
1108 2004 Honda CIVIC 1.6 Şehir Seç 8.9.2026 15:30 1.000 TL
1109 2012 Bmw Z4 28i SDRIVE Ankara 8.9.2026 15:30 1.000 TL
1110 2015 Volvo S60 1.6 Eskişehir 8.9.2026 15:30 1.000 TL
1111 2003 Mercedes E 220 CDI Antalya 8.9.2026 15:30 1.000 TL
1112 2006 Ford TRANSIT CONNECT 1,8 TDCİ Ankara 8.9.2026 15:30 1.000 TL
1113 2012 Volkswagen GOLF 1.4 TSI TRENDLINE Antalya 8.9.2026 15:30 1.000 TL
1114 2017 Bmw 520İ Ankara 8.9.2026 15:30 1.000 TL
1115 1996 Renault R19 EUROPA 1,4 RN Antalya 8.9.2026 15:30 1.000 TL
1116 2016 Citroen C4 CACTUS 1.6 E-HDI Mersin 8.9.2026 15:30 1.000 TL
1117 2009 Volkswagen CADDY KOMBI 1.9 TDI Adana 8.9.2026 15:30 1.000 TL
1118 2019 Renault MEGANE SEDAN 1.5 BLUEDCI Gaziantep 8.9.2026 15:30 1.000 TL
1119 2024 Honda PCX 125 İstanbul 8.9.2026 15:30 1.000 TL
1120 2016 Audi Q3 1.4 TFSI Hatay 8.9.2026 15:30 1.000 TL
1121 2013 Volkswagen JETTA 1.4 TSI (122) TIPTRONIC Erzurum 8.9.2026 15:30 1.000 TL
1122 1999 Renault R9 BROADWAY 1.4 RN Konya 8.9.2026 15:30 1.000 TL
1123 2012 Hyundai ACCENT BLUE 1.6 CRDI Çorum 8.9.2026 15:30 1.000 TL
1124 2023 Peugeot 508 1.5 BLUEHDI 130 Hatay 8.9.2026 15:30 1.000 TL
1125 2024 Chery TIGGO 7 PRO Van 8.9.2026 15:30 1.000 TL
1126 2015 Hyundai i30 1.6 GDI DCT Eskişehir 8.9.2026 15:30 1.000 TL
1127 2014 Honda CBR 250 R Ankara 8.9.2026 15:30 1.000 TL
1128 2024 Honda DIO 110 Kocaeli 8.9.2026 15:30 1.000 TL
1129 2025 Motorsiklet 250 SR Antalya 8.9.2026 15:30 1.000 TL
1130 2004 Suzuki GSXR 750 Şehir Seç 8.9.2026 15:30 1.000 TL
1131 1996 Fiat/Tofaş KARTAL SLX Karaman 8.9.2026 15:30 1.000 TL
1132 2012 Skoda FABIA 1.2 Bolu 8.9.2026 15:30 1.000 TL
1133 2025 Citroen C4 X 1.2 PURETECH Niğde 8.9.2026 15:30 1.000 TL
1134 2019 Peugeot 3008 1.5 BLUEHDI Şanlıurfa 8.9.2026 15:30 1.000 TL
1135 2024 Peugeot e-2008 Kayseri 8.9.2026 15:30 1.000 TL
1136 2001 Renault CLIO SEDAN 1.4 RNA Balıkesir 8.9.2026 15:30 1.000 TL
1137 2017 Audi A6 2.0 TDI Şanlıurfa 8.9.2026 15:30 1.000 TL
1138 1989 Renault 11 FLASH Şehir Seç 8.9.2026 15:30 TL
1139 2024 Togg T10X V2 RWD UZUN MENZIL 160KW İzmir 8.9.2026 15:30 1.000 TL
1140 2017 Ford FOCUS III MCA 1.6 TDCI Niğde 8.9.2026 15:30 1.000 TL
1141 2016 Fiat/Tofaş DOBLO COMBI 1.6 M.JET Şanlıurfa 8.9.2026 15:30 1.000 TL
1142 1998 Fiat/Tofaş PALIO 1.6 16V HL Eskişehir 8.9.2026 16:30 1.000 TL
1143 2007 Honda CIVIC SEDAN 1.6 Samsun 9.9.2026 15:30 1.000 TL
1144 2011 Honda CIVIC SEDAN 1.6 ELEGANCE OV (Y) Bursa 9.9.2026 15:30 1.000 TL
1145 2025 Renault CLIO 1.0 TCE X-TRONIC 90 Mardin 9.9.2026 15:30 1.000 TL
1146 2012 Volkswagen POLO 1.4 COMFORTLINE TIPTRONIC DSG (85) Konya 9.9.2026 15:30 1.000 TL
1147 2003 Volkswagen PASSAT 1.9 TDI Ankara 9.9.2026 15:30 1.000 TL
1148 2021 Fiat/Tofaş DOBLO COMBI 1.6 M.JET 120 Bursa 9.9.2026 15:30 1.000 TL
1149 2021 Volkswagen POLO 1.0 TSI 95 DSG Adana 9.9.2026 15:30 1.000 TL
1150 2021 Fiat/Tofaş EGEA SEDAN 1.4 FIRE Antalya 9.9.2026 15:30 1.000 TL
1151 2022 Fiat/Tofaş EGEA SEDAN 1.6 M.JET Afyonkarahisar 9.9.2026 15:30 1.000 TL
1152 2021 Citroen C-ELYSEE 1,5 BLUEHDI İstanbul 9.9.2026 15:30 1.000 TL
1153 2022 Renault TAILANT 1,0 T Mardin 9.9.2026 15:30 1.000 TL
1154 2024 Opel CORSA 1.2 İzmir 9.9.2026 15:30 1.000 TL
1155 2021 Renault MEGANE SEDAN 1.3 TCE EDC 140 FAZ2 Tekirdağ 9.9.2026 15:30 1.000 TL
1156 2024 Motorsiklet KUBA TK03 Malatya 9.9.2026 15:30 1.000 TL
1157 2023 Motorsiklet KUBA EGE 50 Osmaniye 9.9.2026 15:30 1.000 TL
1158 2016 Bmw 520i SEDAN 1.6 (170) İstanbul 9.9.2026 15:30 1.000 TL
1159 2012 Volkswagen GOLF 1.6 TDI BMT 105 COMFORTLINE İstanbul 9.9.2026 15:30 1.000 TL
1160 2020 Motorsiklet KRAL YKR44 PION Şehir Seç 9.9.2026 15:30 1.000 TL
1161 2022 Motorsiklet 250 DUKE Gaziantep 9.9.2026 15:30 1.000 TL
1162 1998 Ford LCY UZUN ŞASİ Manisa 9.9.2026 15:30 1.000 TL
1163 2020 Motorsiklet MTN 250 Muğla 9.9.2026 15:30 1.000 TL
1164 2024 Motorsiklet MONDIAL SCOOTER FURY 110i Aydın 9.9.2026 15:30 1.000 TL
1165 2009 Ford TRANSIT KAMYONET Şanlıurfa 9.9.2026 15:30 1.000 TL
1166 2019 Peugeot 301 ACTIVE 1.5 BLUEHDI Antalya 10.9.2026 15:30 1.000 TL
1167 2023 Mercedes EQE 350 4MATIC AMG İzmir 10.9.2026 15:30 1.000 TL
1168 2021 Toyota PROACE CITY CARGO 1.5 D Sakarya 10.9.2026 15:30 1.000 TL
1169 2023 Motorsiklet VIESTE 249 Şehir Seç 10.9.2026 15:30 1.000 TL
1170 2013 Fiat/Tofaş LINEA SEDAN 1.3 MULTIJET Konya 10.9.2026 15:30 1.000 TL
1171 2023 Motorsiklet KRAL RIGIL 125 Muğla 10.9.2026 15:30 1.000 TL
1172 2018 Motorsiklet CUP 100 SFC SNAPPY X Niğde 10.9.2026 15:30 1.000 TL
1173 2017 Bmw 318i SEDAN 1.5 Bursa 10.9.2026 15:30 1.000 TL
1174 2012 Fiat/Tofaş LINEA 1.3 MULTIJET Şehir Seç 10.9.2026 15:30 1.000 TL
1175 2004 Opel VECTRA 1.6 COMFORT Şanlıurfa 10.9.2026 15:30 1.000 TL
1176 2014 Peugeot 301 1,6 HDI İzmir 10.9.2026 15:30 1.000 TL
1177 2025 Opel CORSA 1.2 T Hatay 10.9.2026 15:30 1.000 TL
1178 2024 Byd SEAL U DM-i Şanlıurfa 10.9.2026 15:30 1.000 TL
1179 2013 Renault SYMBOL 1.5 DCI Balıkesir 10.9.2026 15:30 1.000 TL
1180 2023 Motorsiklet PULSAR F250 İstanbul 10.9.2026 15:30 1.000 TL
1181 2013 Opel CORSA 1.3 CDTi İzmir 10.9.2026 15:30 1.000 TL
1182 1992 Renault 9 GTE BROADWAY Antalya 11.9.2026 15:30 1.000 TL
1183 2023 Fiat/Tofaş EGEA CROSS 1.6 M.JET Karaman 11.9.2026 15:30 1.000 TL
1184 2013 Renault FLUENCE SEDAN 1.5 DCI Mardin 11.9.2026 15:30 1.000 TL
1185 2016 Volkswagen GOLF 1.6 TDI Konya 11.9.2026 15:30 1.000 TL
1186 1992 Renault R 1179 Manisa 11.9.2026 15:30 1.000 TL
1187 2023 Dacia DUSTER 1.5 BLUEDCI 115 Kars 11.9.2026 15:30 1.000 TL
1188 2001 Ford FOCUS 1.6i GHIA SEDAN Van 11.9.2026 15:30 1.000 TL
Deniz Uğurlu : 0532 6657413 - Abdullah Adsay : 0506 7521791 - Metin Oktay : 0532 6717940 -  WhatsApp Hattı: 0533 2028867
Banka Hesabımız
Copyright © 2003 , TAŞKIN  UĞURLU  Hasarlı Oto Tüm hakları saklıdır.